Observation data for Lesley on 03/11/2018      Previous  Date  Next       Current Mesonet Observations  Soil Data  Daily Summary Page  Observations in Plain Language
KLE1 110600Z 02022G27KT 15/M04 A2999 RMK A01 T01511040  RH  027%=      5-min Rain = 0
KLE1 110601Z 01025G30KT 15/M04 A2999 RMK A01 T01511040  RH  027%=      5-min Rain = 0
KLE1 110602Z 02022G28KT 15/M04 A2999 RMK A01 T01511040  RH  026%=      5-min Rain = 0
KLE1 110603Z 02019KT 15/M04 A2999 RMK A01 T01511040  RH  026%=      5-min Rain = 0
KLE1 110604Z 02018KT 15/M04 A2999 RMK A01 T01511040  RH  026%=      5-min Rain = 0
KLE1 110605Z 02021KT 15/M04 A2999 RMK A01 T01501040  RH  027%=      5-min Rain = 0
KLE1 110606Z 02018KT 15/M04 A2999 RMK A01 T01501040  RH  027%=      5-min Rain = 0
KLE1 110607Z 01023KT 15/M04 A2999 RMK A01 T01501041  RH  027%=      5-min Rain = 0
KLE1 110608Z 01020G26KT 15/M04 A2999 RMK A01 T01501041  RH  027%=      5-min Rain = 0
KLE1 110609Z 02023G29KT 15/M04 A30 RMK A01 T01501041  RH  027%=      5-min Rain = 0
KLE1 110610Z 02022KT 15/M04 A2999 RMK A01 T01501041  RH  026%=      5-min Rain = 0
KLE1 110611Z 01020G27KT 15/M04 A30 RMK A01 T01501041  RH  026%=      5-min Rain = 0
KLE1 110612Z 02023KT 15/M04 A2999 RMK A01 T01501041  RH  027%=      5-min Rain = 0
KLE1 110613Z 02022G27KT 15/M04 A2999 RMK A01 T01501041  RH  027%=      5-min Rain = 0
KLE1 110614Z 01020KT 15/M04 A2999 RMK A01 T01491041  RH  027%=      5-min Rain = 0
KLE1 110615Z 02021G28KT 15/M04 A2999 RMK A01 T01491041  RH  027%=      5-min Rain = 0
KLE1 110616Z 01022KT 15/M04 A2999 RMK A01 T01481041  RH  027%=      5-min Rain = 0
KLE1 110617Z 02019KT 15/M04 A2999 RMK A01 T01491041  RH  027%=      5-min Rain = 0
KLE1 110618Z 02022KT 15/M04 A2999 RMK A01 T01481041  RH  027%=      5-min Rain = 0
KLE1 110619Z 02022KT 15/M04 A2999 RMK A01 T01481041  RH  027%=      5-min Rain = 0
KLE1 110620Z 01024G30KT 15/M04 A2999 RMK A01 T01481040  RH  027%=      5-min Rain = 0
KLE1 110621Z 01020G26KT 15/M04 A2999 RMK A01 T01481040  RH  027%=      5-min Rain = 0
KLE1 110622Z 02023G29KT 15/M04 A2999 RMK A01 T01481040  RH  027%=      5-min Rain = 0
KLE1 110623Z 02020KT 15/M04 A2999 RMK A01 T01481040  RH  027%=      5-min Rain = 0
KLE1 110624Z 01022G30KT 15/M04 A2999 RMK A01 T01471040  RH  027%=      5-min Rain = 0
KLE1 110625Z 02023G28KT 15/M04 A2999 RMK A01 T01471040  RH  027%=      5-min Rain = 0
KLE1 110626Z 01026G31KT 15/M04 A2999 RMK A01 T01471039  RH  027%=      5-min Rain = 0
KLE1 110627Z 02026G35KT 15/M04 A2999 RMK A01 T01471039  RH  027%=      5-min Rain = 0
KLE1 110628Z 02022KT 15/M04 A30 RMK A01 T01471039  RH  027%=      5-min Rain = 0
KLE1 110629Z 02023KT 15/M04 A30 RMK A01 T01471039  RH  027%=      5-min Rain = 0
KLE1 110630Z 02024KT 15/M04 A30 RMK A01 T01471039  RH  028%=      5-min Rain = 0
KLE1 110631Z 01019G24KT 15/M04 A30 RMK A01 T01471038  RH  028%=      5-min Rain = 0
KLE1 110632Z 02020G25KT 15/M04 A30 RMK A01 T01461039  RH  028%=      5-min Rain = 0
KLE1 110633Z 02019KT 15/M04 A30 RMK A01 T01451038  RH  028%=      5-min Rain = 0
KLE1 110634Z 02025G30KT 15/M04 A30 RMK A01 T01451038  RH  028%=      5-min Rain = 0
KLE1 110635Z 02022G28KT 15/M04 A30 RMK A01 T01451037  RH  028%=      5-min Rain = 0
KLE1 110636Z 02020KT 15/M04 A30 RMK A01 T01451037  RH  028%=      5-min Rain = 0
KLE1 110637Z 02021KT 15/M04 A30 RMK A01 T01451037  RH  028%=      5-min Rain = 0
KLE1 110638Z 01024KT 15/M04 A30 RMK A01 T01451037  RH  028%=      5-min Rain = 0
KLE1 110639Z 02023G31KT 14/M04 A30 RMK A01 T01441036  RH  028%=      5-min Rain = 0
KLE1 110640Z 02025KT 14/M04 A30 RMK A01 T01441036  RH  029%=      5-min Rain = 0
KLE1 110641Z 02025G30KT 14/M04 A30 RMK A01 T01441036  RH  029%=      5-min Rain = 0
KLE1 110642Z 02025G34KT 14/M04 A30 RMK A01 T01441035  RH  029%=      5-min Rain = 0
KLE1 110643Z 01021G26KT 14/M04 A30 RMK A01 T01441035  RH  029%=      5-min Rain = 0
KLE1 110644Z 02029KT 14/M03 A30 RMK A01 T01441034  RH  029%=      5-min Rain = 0
KLE1 110645Z 02024KT 14/M03 A30 RMK A01 T01441034  RH  029%=      5-min Rain = 0
KLE1 110646Z 02025G31KT 14/M03 A30 RMK A01 T01441034  RH  029%=      5-min Rain = 0
KLE1 110647Z 02024G29KT 14/M03 A30 RMK A01 T01431033  RH  029%=      5-min Rain = 0
KLE1 110648Z 02024KT 14/M03 A30 RMK A01 T01431033  RH  029%=      5-min Rain = 0
KLE1 110649Z 01022KT 14/M03 A3001 RMK A01 T01431032  RH  030%=      5-min Rain = 0
KLE1 110650Z 01021G26KT 14/M03 A3001 RMK A01 T01421032  RH  030%=      5-min Rain = 0
KLE1 110651Z 02021G27KT 14/M03 A3001 RMK A01 T01421032  RH  030%=      5-min Rain = 0
KLE1 110652Z 01024G31KT 14/M03 A3001 RMK A01 T01421031  RH  030%=      5-min Rain = 0
KLE1 110653Z 01024KT 14/M03 A3001 RMK A01 T01411031  RH  030%=      5-min Rain = 0
KLE1 110654Z 02021KT 14/M03 A3001 RMK A01 T01411031  RH  030%=      5-min Rain = 0
KLE1 110655Z 01021G26KT 14/M03 A3001 RMK A01 T01411031  RH  030%=      5-min Rain = 0
KLE1 110656Z 02024G29KT 14/M03 A3001 RMK A01 T01411030  RH  030%=      5-min Rain = 0
KLE1 110657Z 01020KT 14/M03 A3001 RMK A01 T01411030  RH  031%=      5-min Rain = 0
KLE1 110658Z 01022G27KT 14/M03 A3001 RMK A01 T01411030  RH  031%=      5-min Rain = 0
KLE1 110659Z 01022KT 14/M03 A3001 RMK A01 T01411029  RH  031%=      5-min Rain = 0
KLE1 110700Z 01023KT 14/M03 A3001 RMK A01 T01411029  RH  031%=      5-min Rain = 0
KLE1 110701Z 02020KT 14/M03 A3001 RMK A01 T01411028  RH  031%=      5-min Rain = 0
KLE1 110702Z 01026KT 14/M03 A3001 RMK A01 T01401028  RH  031%=      5-min Rain = 0
KLE1 110703Z 02025G31KT 14/M03 A3001 RMK A01 T01401028  RH  031%=      5-min Rain = 0
KLE1 110704Z 02028KT 14/M03 A3001 RMK A01 T01401027  RH  031%=      5-min Rain = 0
KLE1 110705Z 01022G27KT 14/M03 A3001 RMK A01 T01401027  RH  031%=      5-min Rain = 0
KLE1 110706Z 02024KT 14/M03 A3001 RMK A01 T01401027  RH  031%=      5-min Rain = 0
KLE1 110707Z 02020KT 14/M03 A3001 RMK A01 T01401026  RH  031%=      5-min Rain = 0
KLE1 110708Z 02025KT 14/M03 A3001 RMK A01 T01401026  RH  032%=      5-min Rain = 0
KLE1 110709Z 02021G28KT 14/M03 A3001 RMK A01 T01401026  RH  032%=      5-min Rain = 0
KLE1 110710Z 02023G31KT 14/M03 A3001 RMK A01 T01401025  RH  032%=      5-min Rain = 0
KLE1 110711Z 02025G32KT 14/M03 A3001 RMK A01 T01391025  RH  032%=      5-min Rain = 0
KLE1 110712Z 02026G31KT 14/M03 A3002 RMK A01 T01391025  RH  032%=      5-min Rain = 0
KLE1 110713Z 02026G33KT 14/M02 A3001 RMK A01 T01401024  RH  032%=      5-min Rain = 0
KLE1 110714Z 02021G27KT 14/M02 A3002 RMK A01 T01391024  RH  032%=      5-min Rain = 0
KLE1 110715Z 01023KT 14/M02 A3002 RMK A01 T01391024  RH  032%=      5-min Rain = 0
KLE1 110716Z 02026KT 14/M02 A3002 RMK A01 T01391024  RH  032%=      5-min Rain = 0
KLE1 110717Z 02027KT 14/M02 A3002 RMK A01 T01381023  RH  033%=      5-min Rain = 0
KLE1 110718Z 02026G32KT 14/M02 A3002 RMK A01 T01381023  RH  033%=      5-min Rain = 0
KLE1 110719Z 02021KT 14/M02 A3002 RMK A01 T01391022  RH  033%=      5-min Rain = 0
KLE1 110720Z 02021KT 14/M02 A3002 RMK A01 T01381022  RH  033%=      5-min Rain = 0
KLE1 110721Z 02023G31KT 14/M02 A3002 RMK A01 T01371022  RH  033%=      5-min Rain = 0
KLE1 110722Z 02029G36KT 14/M02 A3002 RMK A01 T01371021  RH  033%=      5-min Rain = 0
KLE1 110723Z 02024G29KT 14/M02 A3002 RMK A01 T01371021  RH  033%=      5-min Rain = 0
KLE1 110724Z 02023G30KT 14/M02 A3003 RMK A01 T01371020  RH  034%=      5-min Rain = 0
KLE1 110725Z 01027KT 14/M02 A3002 RMK A01 T01371020  RH  034%=      5-min Rain = 0
KLE1 110726Z 02024G31KT 14/M02 A3003 RMK A01 T01361020  RH  034%=      5-min Rain = 0
KLE1 110727Z 01025KT 14/M02 A3003 RMK A01 T01371020  RH  034%=      5-min Rain = 0
KLE1 110728Z 02025KT 14/M02 A3003 RMK A01 T01371020  RH  034%=      5-min Rain = 0
KLE1 110729Z 02024KT 14/M02 A3003 RMK A01 T01361020  RH  034%=      5-min Rain = 0
KLE1 110730Z 01023KT 14/M02 A3003 RMK A01 T01361020  RH  034%=      5-min Rain = 0
KLE1 110731Z 02019KT 14/M02 A3003 RMK A01 T01361020  RH  034%=      5-min Rain = 0
KLE1 110732Z 02022G29KT 14/M02 A3003 RMK A01 T01351020  RH  034%=      5-min Rain = 0
KLE1 110733Z 02025G34KT 14/M02 A3003 RMK A01 T01351020  RH  034%=      5-min Rain = 0
KLE1 110734Z 02028G33KT 14/M02 A3003 RMK A01 T01351020  RH  034%=      5-min Rain = 0
KLE1 110735Z 01026KT 14/M02 A3003 RMK A01 T01351020  RH  034%=      5-min Rain = 0
KLE1 110736Z 01021G28KT 14/M02 A3003 RMK A01 T01351021  RH  034%=      5-min Rain = 0
KLE1 110737Z 02026KT 13/M02 A3003 RMK A01 T01341021  RH  034%=      5-min Rain = 0
KLE1 110738Z 02026G31KT 13/M02 A3003 RMK A01 T01341020  RH  034%=      5-min Rain = 0
KLE1 110739Z 01025KT 13/M02 A3003 RMK A01 T01341020  RH  034%=      5-min Rain = 0
KLE1 110740Z 02023G28KT 13/M02 A3003 RMK A01 T01341020  RH  034%=      5-min Rain = 0
KLE1 110741Z 02028KT 13/M02 A3003 RMK A01 T01341020  RH  034%=      5-min Rain = 0
KLE1 110742Z 02027G34KT 13/M02 A3003 RMK A01 T01341019  RH  035%=      5-min Rain = 0
KLE1 110743Z 02025KT 13/M02 A3003 RMK A01 T01341019  RH  035%=      5-min Rain = 0
KLE1 110744Z 02021KT 13/M02 A3004 RMK A01 T01341019  RH  035%=      5-min Rain = 0
KLE1 110745Z 02020G25KT 13/M02 A3004 RMK A01 T01331019  RH  035%=      5-min Rain = 0
KLE1 110746Z 02021KT 13/M02 A3004 RMK A01 T01331019  RH  035%=      5-min Rain = 0
KLE1 110747Z 02022G27KT 13/M02 A3003 RMK A01 T01321019  RH  035%=      5-min Rain = 0
KLE1 110748Z 02023G30KT 13/M02 A3003 RMK A01 T01321018  RH  035%=      5-min Rain = 0
KLE1 110749Z 02023G30KT 13/M02 A3003 RMK A01 T01331018  RH  035%=      5-min Rain = 0
KLE1 110750Z 02022G28KT 13/M02 A3003 RMK A01 T01321019  RH  035%=      5-min Rain = 0
KLE1 110751Z 02022KT 13/M02 A3003 RMK A01 T01321019  RH  035%=      5-min Rain = 0
KLE1 110752Z 02019G26KT 13/M02 A3004 RMK A01 T01321019  RH  035%=      5-min Rain = 0
KLE1 110753Z 02019G24KT 13/M02 A3003 RMK A01 T01321018  RH  035%=      5-min Rain = 0
KLE1 110754Z 02021G27KT 13/M02 A3004 RMK A01 T01321018  RH  035%=      5-min Rain = 0
KLE1 110755Z 02021KT 13/M02 A3004 RMK A01 T01321018  RH  035%=      5-min Rain = 0
KLE1 110756Z 02020KT 13/M02 A3004 RMK A01 T01321019  RH  035%=      5-min Rain = 0
KLE1 110757Z 01019KT 13/M02 A3004 RMK A01 T01321019  RH  035%=      5-min Rain = 0
KLE1 110758Z 02018G26KT 13/M02 A3004 RMK A01 T01321019  RH  035%=      5-min Rain = 0
KLE1 110759Z 02022KT 13/M02 A3004 RMK A01 T01321019  RH  035%=      5-min Rain = 0
KLE1 110800Z 02023KT 13/M02 A3004 RMK A01 T01321019  RH  035%=      5-min Rain = 0
KLE1 110801Z 02022KT 13/M02 A3004 RMK A01 T01321019  RH  035%=      5-min Rain = 0
KLE1 110802Z 02020G25KT 13/M02 A3004 RMK A01 T01321018  RH  035%=      5-min Rain = 0
KLE1 110803Z 02022KT 13/M02 A3004 RMK A01 T01321018  RH  035%=      5-min Rain = 0
KLE1 110804Z 02023G31KT 13/M02 A3004 RMK A01 T01321019  RH  035%=      5-min Rain = 0
KLE1 110805Z 01024KT 13/M02 A3004 RMK A01 T01321019  RH  035%=      5-min Rain = 0
KLE1 110806Z 01019KT 13/M02 A3004 RMK A01 T01321019  RH  035%=      5-min Rain = 0
KLE1 110807Z 01021KT 13/M02 A3004 RMK A01 T01321019  RH  035%=      5-min Rain = 0
KLE1 110808Z 01022G27KT 13/M02 A3004 RMK A01 T01321019  RH  035%=      5-min Rain = 0
KLE1 110809Z 02021KT 13/M02 A3004 RMK A01 T01321019  RH  035%=      5-min Rain = 0
KLE1 110810Z 02023KT 13/M02 A3004 RMK A01 T01311019  RH  035%=      5-min Rain = 0
KLE1 110811Z 02022G27KT 13/M02 A3004 RMK A01 T01311019  RH  035%=      5-min Rain = 0
KLE1 110812Z 01021G26KT 13/M02 A3004 RMK A01 T01311019  RH  035%=      5-min Rain = 0
KLE1 110813Z 02021KT 13/M02 A3004 RMK A01 T01311019  RH  035%=      5-min Rain = 0
KLE1 110814Z 02021KT 13/M02 A3004 RMK A01 T01301020  RH  035%=      5-min Rain = 0
KLE1 110815Z 01019KT 13/M02 A3004 RMK A01 T01301020  RH  035%=      5-min Rain = 0
KLE1 110816Z 01020KT 13/M02 A3004 RMK A01 T01301020  RH  035%=      5-min Rain = 0
KLE1 110817Z 01018KT 13/M02 A3004 RMK A01 T01311020  RH  035%=      5-min Rain = 0
KLE1 110818Z 01019G26KT 13/M02 A3004 RMK A01 T01301020  RH  035%=      5-min Rain = 0
KLE1 110819Z 01022KT 13/M02 A3004 RMK A01 T01291021  RH  035%=      5-min Rain = 0
KLE1 110820Z 01017KT 13/M02 A3004 RMK A01 T01301021  RH  035%=      5-min Rain = 0
KLE1 110821Z 02017G22KT 13/M02 A3004 RMK A01 T01301020  RH  035%=      5-min Rain = 0
KLE1 110822Z 02019G25KT 13/M02 A3004 RMK A01 T01291021  RH  035%=      5-min Rain = 0
KLE1 110823Z 01019G24KT 13/M02 A3004 RMK A01 T01291021  RH  035%=      5-min Rain = 0
KLE1 110824Z 01018KT 13/M02 A3005 RMK A01 T01291021  RH  035%=      5-min Rain = 0
KLE1 110825Z 01017KT 13/M02 A3005 RMK A01 T01291021  RH  035%=      5-min Rain = 0
KLE1 110826Z 01018KT 13/M02 A3005 RMK A01 T01291021  RH  035%=      5-min Rain = 0
KLE1 110827Z 02017KT 13/M02 A3005 RMK A01 T01291021  RH  035%=      5-min Rain = 0
KLE1 110828Z 01018G23KT 13/M02 A3005 RMK A01 T01291021  RH  035%=      5-min Rain = 0
KLE1 110829Z 02017KT 13/M02 A3005 RMK A01 T01291022  RH  035%=      5-min Rain = 0
KLE1 110830Z 01018KT 13/M02 A3005 RMK A01 T01291022  RH  035%=      5-min Rain = 0
KLE1 110831Z 01020KT 13/M02 A3005 RMK A01 T01291022  RH  035%=      5-min Rain = 0
KLE1 110832Z 02018KT 13/M02 A3005 RMK A01 T01291022  RH  035%=      5-min Rain = 0
KLE1 110833Z 02016G24KT 13/M02 A3005 RMK A01 T01291022  RH  035%=      5-min Rain = 0
KLE1 110834Z 02018G23KT 13/M02 A3005 RMK A01 T01291022  RH  035%=      5-min Rain = 0
KLE1 110835Z 02017G22KT 13/M02 A3005 RMK A01 T01291022  RH  035%=      5-min Rain = 0
KLE1 110836Z 01016KT 13/M02 A3005 RMK A01 T01281022  RH  035%=      5-min Rain = 0
KLE1 110837Z 01016KT 13/M02 A3005 RMK A01 T01281022  RH  035%=      5-min Rain = 0
KLE1 110838Z 01019KT 13/M02 A3005 RMK A01 T01281023  RH  035%=      5-min Rain = 0
KLE1 110839Z 02017KT 13/M02 A3005 RMK A01 T01281023  RH  035%=      5-min Rain = 0
KLE1 110840Z 01020G25KT 13/M02 A3005 RMK A01 T01281023  RH  035%=      5-min Rain = 0
KLE1 110841Z 02019KT 13/M02 A3005 RMK A01 T01281023  RH  035%=      5-min Rain = 0
KLE1 110842Z 01020KT 13/M02 A3005 RMK A01 T01281023  RH  035%=      5-min Rain = 0
KLE1 110843Z 01018KT 13/M02 A3005 RMK A01 T01281023  RH  035%=      5-min Rain = 0
KLE1 110844Z 01018KT 13/M02 A3005 RMK A01 T01281023  RH  035%=      5-min Rain = 0
KLE1 110845Z 02019KT 13/M02 A3005 RMK A01 T01271023  RH  035%=      5-min Rain = 0
KLE1 110846Z 01015KT 13/M02 A3005 RMK A01 T01271022  RH  035%=      5-min Rain = 0
KLE1 110847Z 01016G22KT 13/M02 A3005 RMK A01 T01271022  RH  035%=      5-min Rain = 0
KLE1 110848Z 01016KT 13/M02 A3005 RMK A01 T01271022  RH  035%=      5-min Rain = 0
KLE1 110849Z 01018KT 13/M02 A3005 RMK A01 T01261022  RH  036%=      5-min Rain = 0
KLE1 110850Z 01016KT 13/M02 A3005 RMK A01 T01271022  RH  036%=      5-min Rain = 0
KLE1 110851Z 01021KT 13/M02 A3005 RMK A01 T01271022  RH  036%=      5-min Rain = 0
KLE1 110852Z 01019KT 13/M02 A3006 RMK A01 T01261022  RH  036%=      5-min Rain = 0
KLE1 110853Z 01021KT 13/M02 A3006 RMK A01 T01261022  RH  036%=      5-min Rain = 0
KLE1 110854Z 02016KT 13/M02 A3006 RMK A01 T01271021  RH  036%=      5-min Rain = 0
KLE1 110855Z 02019KT 13/M02 A3006 RMK A01 T01261021  RH  036%=      5-min Rain = 0
KLE1 110856Z 01019KT 13/M02 A3006 RMK A01 T01261021  RH  036%=      5-min Rain = 0
KLE1 110857Z 01016KT 13/M02 A3006 RMK A01 T01261021  RH  036%=      5-min Rain = 0
KLE1 110858Z 01016KT 13/M02 A3006 RMK A01 T01261021  RH  036%=      5-min Rain = 0
KLE1 110859Z 01014KT 13/M02 A3006 RMK A01 T01251021  RH  036%=      5-min Rain = 0
KLE1 110900Z 02016KT 13/M02 A3006 RMK A01 T01251021  RH  036%=      5-min Rain = 0
KLE1 110901Z 01016KT 13/M02 A3006 RMK A01 T01251021  RH  036%=      5-min Rain = 0
KLE1 110902Z 01020KT 12/M02 A3006 RMK A01 T01241021  RH  036%=      5-min Rain = 0
KLE1 110903Z 01018KT 12/M02 A3006 RMK A01 T01241021  RH  036%=      5-min Rain = 0
KLE1 110904Z 01015KT 12/M02 A3006 RMK A01 T01241021  RH  036%=      5-min Rain = 0
KLE1 110905Z 01018KT 12/M02 A3006 RMK A01 T01241021  RH  036%=      5-min Rain = 0
KLE1 110906Z 01023KT 12/M02 A3006 RMK A01 T01241021  RH  036%=      5-min Rain = 0
KLE1 110907Z 01022KT 12/M02 A3006 RMK A01 T01241021  RH  036%=      5-min Rain = 0
KLE1 110908Z 01017KT 12/M02 A3006 RMK A01 T01241021  RH  036%=      5-min Rain = 0
KLE1 110909Z 01014KT 12/M02 A3007 RMK A01 T01241021  RH  036%=      5-min Rain = 0
KLE1 110910Z 01015KT 12/M02 A3007 RMK A01 T01231021  RH  036%=      5-min Rain = 0
KLE1 110911Z 01016KT 12/M02 A3007 RMK A01 T01231021  RH  037%=      5-min Rain = 0
KLE1 110912Z 01020G28KT 12/M02 A3007 RMK A01 T01221021  RH  037%=      5-min Rain = 0
KLE1 110913Z 01019KT 12/M02 A3007 RMK A01 T01231021  RH  037%=      5-min Rain = 0
KLE1 110914Z 01020KT 12/M02 A3007 RMK A01 T01221021  RH  037%=      5-min Rain = 0
KLE1 110915Z 01017KT 12/M02 A3007 RMK A01 T01221021  RH  037%=      5-min Rain = 0
KLE1 110916Z 01014KT 12/M02 A3007 RMK A01 T01221021  RH  037%=      5-min Rain = 0
KLE1 110917Z 01017KT 12/M02 A3007 RMK A01 T01221021  RH  037%=      5-min Rain = 0
KLE1 110918Z 01022G27KT 12/M02 A3007 RMK A01 T01221020  RH  037%=      5-min Rain = 0
KLE1 110919Z 01020G25KT 12/M02 A3007 RMK A01 T01211020  RH  037%=      5-min Rain = 0
KLE1 110920Z 00020KT 12/M02 A3007 RMK A01 T01221020  RH  037%=      5-min Rain = 0
KLE1 110921Z 01014G19KT 12/M02 A3007 RMK A01 T01221020  RH  037%=      5-min Rain = 0
KLE1 110922Z 01018G27KT 12/M02 A3007 RMK A01 T01221020  RH  037%=      5-min Rain = 0
KLE1 110923Z 01020G26KT 12/M02 A3007 RMK A01 T01211020  RH  038%=      5-min Rain = 0
KLE1 110924Z 01020KT 12/M02 A3007 RMK A01 T01211019  RH  038%=      5-min Rain = 0
KLE1 110925Z 00020KT 12/M02 A3007 RMK A01 T01211019  RH  038%=      5-min Rain = 0
KLE1 110926Z 01018KT 12/M02 A3007 RMK A01 T01211019  RH  038%=      5-min Rain = 0
KLE1 110927Z 01016KT 12/M02 A3007 RMK A01 T01211019  RH  038%=      5-min Rain = 0
KLE1 110928Z 01020KT 12/M02 A3007 RMK A01 T01211019  RH  038%=      5-min Rain = 0
KLE1 110929Z 01016KT 12/M02 A3008 RMK A01 T01211019  RH  038%=      5-min Rain = 0
KLE1 110930Z 01015KT 12/M02 A3008 RMK A01 T01201019  RH  038%=      5-min Rain = 0
KLE1 110931Z 01019G25KT 12/M02 A3007 RMK A01 T01201020  RH  038%=      5-min Rain = 0
KLE1 110932Z 01017KT 12/M02 A3007 RMK A01 T01201020  RH  038%=      5-min Rain = 0
KLE1 110933Z 01021KT 12/M02 A3007 RMK A01 T01201020  RH  038%=      5-min Rain = 0
KLE1 110934Z 01022G28KT 12/M02 A3007 RMK A01 T01191021  RH  037%=      5-min Rain = 0
KLE1 110935Z 01022KT 12/M02 A3007 RMK A01 T01201022  RH  037%=      5-min Rain = 0
KLE1 110936Z 01021G26KT 12/M02 A3008 RMK A01 T01201022  RH  037%=      5-min Rain = 0
KLE1 110937Z 01022KT 12/M02 A3007 RMK A01 T01201021  RH  037%=      5-min Rain = 0
KLE1 110938Z 01020G26KT 12/M02 A3007 RMK A01 T01201022  RH  037%=      5-min Rain = 0
KLE1 110939Z 01019G24KT 12/M02 A3008 RMK A01 T01201022  RH  037%=      5-min Rain = 0
KLE1 110940Z 02024KT 12/M02 A3007 RMK A01 T01191023  RH  037%=      5-min Rain = 0
KLE1 110941Z 01021KT 12/M02 A3008 RMK A01 T01191022  RH  037%=      5-min Rain = 0
KLE1 110942Z 01022G28KT 12/M02 A3008 RMK A01 T01191023  RH  037%=      5-min Rain = 0
KLE1 110943Z 01020KT 12/M02 A3008 RMK A01 T01191023  RH  037%=      5-min Rain = 0
KLE1 110944Z 01019G24KT 12/M02 A3008 RMK A01 T01191023  RH  037%=      5-min Rain = 0
KLE1 110945Z 01020KT 12/M02 A3008 RMK A01 T01191023  RH  037%=      5-min Rain = 0
KLE1 110946Z 01017G24KT 12/M02 A3008 RMK A01 T01181023  RH  037%=      5-min Rain = 0
KLE1 110947Z 02016KT 12/M02 A3008 RMK A01 T01171023  RH  037%=      5-min Rain = 0
KLE1 110948Z 02021G29KT 12/M02 A3008 RMK A01 T01171022  RH  038%=      5-min Rain = 0
KLE1 110949Z 01019G24KT 12/M02 A3008 RMK A01 T01171022  RH  038%=      5-min Rain = 0
KLE1 110950Z 02016KT 12/M02 A3008 RMK A01 T01171022  RH  038%=      5-min Rain = 0
KLE1 110951Z 01017G23KT 12/M02 A3008 RMK A01 T01171022  RH  038%=      5-min Rain = 0
KLE1 110952Z 02018G23KT 12/M02 A3008 RMK A01 T01161021  RH  038%=      5-min Rain = 0
KLE1 110953Z 01020G26KT 12/M02 A3008 RMK A01 T01161021  RH  038%=      5-min Rain = 0
KLE1 110954Z 02022KT 12/M02 A3008 RMK A01 T01161021  RH  038%=      5-min Rain = 0
KLE1 110955Z 01019KT 12/M02 A3008 RMK A01 T01161021  RH  038%=      5-min Rain = 0
KLE1 110956Z 01019KT 12/M02 A3008 RMK A01 T01161020  RH  039%=      5-min Rain = 0
KLE1 110957Z 02016KT 12/M02 A3008 RMK A01 T01161020  RH  039%=      5-min Rain = 0
KLE1 110958Z 01019G25KT 12/M02 A3008 RMK A01 T01161020  RH  039%=      5-min Rain = 0
KLE1 110959Z 01018KT 12/M02 A3008 RMK A01 T01151020  RH  039%=      5-min Rain = 0
KLE1 111000Z 01017KT 11/M02 A3009 RMK A01 T01141020  RH  039%=      5-min Rain = 0
KLE1 111001Z 02016G21KT 12/M02 A3009 RMK A01 T01151020  RH  039%=      5-min Rain = 0
KLE1 111002Z 01016G22KT 11/M02 A3009 RMK A01 T01141020  RH  039%=      5-min Rain = 0
KLE1 111003Z 01017G22KT 11/M02 A3009 RMK A01 T01141020  RH  039%=      5-min Rain = 0
KLE1 111004Z 01020KT 11/M02 A3009 RMK A01 T01141019  RH  040%=      5-min Rain = 0
KLE1 111005Z 01015G21KT 11/M02 A3009 RMK A01 T01141019  RH  040%=      5-min Rain = 0
KLE1 111006Z 01016G21KT 11/M02 A3009 RMK A01 T01131019  RH  040%=      5-min Rain = 0
KLE1 111007Z 01022KT 11/M02 A3009 RMK A01 T01131018  RH  040%=      5-min Rain = 0
KLE1 111008Z 01017KT 11/M02 A3009 RMK A01 T01131018  RH  040%=      5-min Rain = 0
KLE1 111009Z 00015KT 11/M02 A301 RMK A01 T01131018  RH  040%=      5-min Rain = 0
KLE1 111010Z 00016KT 11/M02 A301 RMK A01 T01131018  RH  040%=      5-min Rain = 0
KLE1 111011Z 01017G23KT 11/M02 A301 RMK A01 T01131018  RH  040%=      5-min Rain = 0
KLE1 111012Z 00020KT 11/M02 A301 RMK A01 T01121018  RH  040%=      5-min Rain = 0
KLE1 111013Z 01019KT 11/M02 A301 RMK A01 T01121018  RH  040%=      5-min Rain = 0
KLE1 111014Z 01018KT 11/M02 A301 RMK A01 T01131017  RH  040%=      5-min Rain = 0
KLE1 111015Z 01018KT 11/M02 A301 RMK A01 T01131017  RH  040%=      5-min Rain = 0
KLE1 111016Z 00019KT 11/M02 A301 RMK A01 T01121018  RH  040%=      5-min Rain = 0
KLE1 111017Z 00017KT 11/M02 A301 RMK A01 T01121018  RH  040%=      5-min Rain = 0
KLE1 111018Z 00016G21KT 11/M02 A301 RMK A01 T01121018  RH  040%=      5-min Rain = 0
KLE1 111019Z 00016KT 11/M02 A301 RMK A01 T01121018  RH  040%=      5-min Rain = 0
KLE1 111020Z 00015KT 11/M02 A301 RMK A01 T01121018  RH  040%=      5-min Rain = 0
KLE1 111021Z 36015KT 11/M02 A301 RMK A01 T01111019  RH  040%=      5-min Rain = 0
KLE1 111022Z 36017G22KT 11/M02 A301 RMK A01 T01111019  RH  040%=      5-min Rain = 0
KLE1 111023Z 36016KT 11/M02 A301 RMK A01 T01111020  RH  040%=      5-min Rain = 0
KLE1 111024Z 00020KT 11/M02 A301 RMK A01 T01111021  RH  040%=      5-min Rain = 0
KLE1 111025Z 36017KT 11/M02 A301 RMK A01 T01111021  RH  040%=      5-min Rain = 0
KLE1 111026Z 36019G24KT 11/M02 A3011 RMK A01 T01111021  RH  040%=      5-min Rain = 0
KLE1 111027Z 00016KT 11/M02 A3011 RMK A01 T01111022  RH  040%=      5-min Rain = 0
KLE1 111028Z 01019KT 11/M02 A3011 RMK A01 T01111021  RH  040%=      5-min Rain = 0
KLE1 111029Z 00020KT 11/M02 A3011 RMK A01 T01111021  RH  040%=      5-min Rain = 0
KLE1 111030Z 00018KT 11/M02 A3011 RMK A01 T01111022  RH  039%=      5-min Rain = 0
KLE1 111031Z 36021KT 11/M02 A3011 RMK A01 T01111022  RH  039%=      5-min Rain = 0
KLE1 111032Z 01018KT 11/M02 A3011 RMK A01 T01111023  RH  039%=      5-min Rain = 0
KLE1 111033Z 35017KT 11/M02 A3011 RMK A01 T01101023  RH  039%=      5-min Rain = 0
KLE1 111034Z 00016KT 11/M02 A3011 RMK A01 T01101023  RH  039%=      5-min Rain = 0
KLE1 111035Z 35015KT 11/M02 A3011 RMK A01 T01091023  RH  039%=      5-min Rain = 0
KLE1 111036Z 36015KT 11/M02 A3011 RMK A01 T01091024  RH  039%=      5-min Rain = 0
KLE1 111037Z 35015KT 11/M02 A3011 RMK A01 T01091024  RH  039%=      5-min Rain = 0
KLE1 111038Z 36012G17KT 11/M03 A3012 RMK A01 T01081025  RH  039%=      5-min Rain = 0
KLE1 111039Z 36013G18KT 11/M03 A3012 RMK A01 T01081025  RH  039%=      5-min Rain = 0
KLE1 111040Z 00014KT 11/M03 A3012 RMK A01 T01071025  RH  039%=      5-min Rain = 0
KLE1 111041Z 36012KT 11/M03 A3012 RMK A01 T01071025  RH  040%=      5-min Rain = 0
KLE1 111042Z 36016KT 11/M03 A3012 RMK A01 T01071025  RH  040%=      5-min Rain = 0
KLE1 111043Z 36018KT 11/M03 A3012 RMK A01 T01071025  RH  040%=      5-min Rain = 0
KLE1 111044Z 00017KT 11/M03 A3012 RMK A01 T01071025  RH  040%=      5-min Rain = 0
KLE1 111045Z 01019KT 11/M03 A3012 RMK A01 T01061025  RH  040%=      5-min Rain = 0
KLE1 111046Z 01016G21KT 11/M02 A3012 RMK A01 T01071024  RH  040%=      5-min Rain = 0
KLE1 111047Z 00018KT 11/M02 A3012 RMK A01 T01071024  RH  040%=      5-min Rain = 0
KLE1 111048Z 01019KT 11/M03 A3012 RMK A01 T01061025  RH  040%=      5-min Rain = 0
KLE1 111049Z 36018KT 11/M03 A3012 RMK A01 T01061025  RH  040%=      5-min Rain = 0
KLE1 111050Z 36016KT 11/M02 A3013 RMK A01 T01061024  RH  040%=      5-min Rain = 0
KLE1 111051Z 01017KT 11/M02 A3013 RMK A01 T01061024  RH  040%=      5-min Rain = 0
KLE1 111052Z 00017KT 11/M03 A3013 RMK A01 T01051025  RH  040%=      5-min Rain = 0
KLE1 111053Z 00017KT 11/M03 A3013 RMK A01 T01051025  RH  040%=      5-min Rain = 0
KLE1 111054Z 35016KT 11/M02 A3013 RMK A01 T01051024  RH  040%=      5-min Rain = 0
KLE1 111055Z 35018KT 11/M02 A3013 RMK A01 T01051024  RH  040%=      5-min Rain = 0
KLE1 111056Z 00017KT 11/M02 A3013 RMK A01 T01051024  RH  041%=      5-min Rain = 0
KLE1 111057Z 01013KT 11/M02 A3013 RMK A01 T01051023  RH  041%=      5-min Rain = 0
KLE1 111058Z 00016KT 10/M02 A3013 RMK A01 T01041024  RH  041%=      5-min Rain = 0
KLE1 111059Z 00017KT 10/M02 A3013 RMK A01 T01031023  RH  041%=      5-min Rain = 0
KLE1 111100Z 00013KT 10/M02 A3013 RMK A01 T01031023  RH  041%=      5-min Rain = 0
KLE1 111101Z 36019G24KT 10/M02 A3013 RMK A01 T01021023  RH  041%=      5-min Rain = 0
KLE1 111102Z 00017KT 10/M02 A3013 RMK A01 T01021023  RH  041%=      5-min Rain = 0
KLE1 111103Z 36014KT 10/M02 A3013 RMK A01 T01021023  RH  041%=      5-min Rain = 0
KLE1 111104Z 00016KT 10/M02 A3013 RMK A01 T01021023  RH  041%=      5-min Rain = 0
KLE1 111105Z 00016KT 10/M02 A3013 RMK A01 T01021023  RH  042%=      5-min Rain = 0
KLE1 111106Z 00016KT 10/M02 A3014 RMK A01 T01021023  RH  042%=      5-min Rain = 0
KLE1 111107Z 36017KT 10/M02 A3014 RMK A01 T01021023  RH  042%=      5-min Rain = 0
KLE1 111108Z 36017KT 10/M02 A3014 RMK A01 T01021023  RH  042%=      5-min Rain = 0
KLE1 111109Z 35018KT 10/M02 A3014 RMK A01 T01011023  RH  042%=      5-min Rain = 0
KLE1 111110Z 35017KT 10/M02 A3014 RMK A01 T01011023  RH  042%=      5-min Rain = 0
KLE1 111111Z 35016KT 10/M02 A3014 RMK A01 T01011023  RH  042%=      5-min Rain = 0
KLE1 111112Z 35013G18KT 10/M02 A3014 RMK A01 T01001023  RH  042%=      5-min Rain = 0
KLE1 111113Z 35013KT 10/M02 A3014 RMK A01 T01001023  RH  042%=      5-min Rain = 0
KLE1 111114Z 35012KT 10/M02 A3014 RMK A01 T00991023  RH  042%=      5-min Rain = 0
KLE1 111115Z 35013KT 10/M02 A3014 RMK A01 T00981024  RH  042%=      5-min Rain = 0
KLE1 111116Z 34012KT 10/M02 A3015 RMK A01 T00981024  RH  043%=      5-min Rain = 0
KLE1 111117Z 34015KT 10/M02 A3015 RMK A01 T00971024  RH  043%=      5-min Rain = 0
KLE1 111118Z 34014KT 10/M03 A3015 RMK A01 T00971025  RH  042%=      5-min Rain = 0
KLE1 111119Z 34014KT 10/M03 A3015 RMK A01 T00961026  RH  042%=      5-min Rain = 0
KLE1 111120Z 33014G19KT 10/M03 A3015 RMK A01 T00961027  RH  042%=      5-min Rain = 0
KLE1 111121Z 35019KT 10/M03 A3015 RMK A01 T00951032  RH  041%=      5-min Rain = 0
KLE1 111122Z 35020G26KT 10/M04 A3015 RMK A01 T00951035  RH  040%=      5-min Rain = 0
KLE1 111123Z 35020KT 09/M04 A3015 RMK A01 T00941040  RH  039%=      5-min Rain = 0
KLE1 111124Z 35021G27KT 09/M04 A3015 RMK A01 T00931042  RH  038%=      5-min Rain = 0
KLE1 111125Z 35021KT 09/M04 A3015 RMK A01 T00921044  RH  038%=      5-min Rain = 0
KLE1 111126Z 36019G25KT 09/M05 A3016 RMK A01 T00921045  RH  038%=      5-min Rain = 0
KLE1 111127Z 35019KT 09/M05 A3016 RMK A01 T00911046  RH  038%=      5-min Rain = 0
KLE1 111128Z 36017KT 09/M05 A3016 RMK A01 T00911047  RH  037%=      5-min Rain = 0
KLE1 111129Z 35017KT 09/M05 A3016 RMK A01 T00911047  RH  037%=      5-min Rain = 0
KLE1 111130Z 35015KT 09/M05 A3016 RMK A01 T00901048  RH  037%=      5-min Rain = 0
KLE1 111131Z 36015KT 09/M05 A3016 RMK A01 T00891049  RH  037%=      5-min Rain = 0
KLE1 111132Z 36015KT 09/M05 A3016 RMK A01 T00891049  RH  037%=      5-min Rain = 0
KLE1 111133Z 35016KT 09/M05 A3016 RMK A01 T00891049  RH  037%=      5-min Rain = 0
KLE1 111134Z 36013KT 09/M05 A3016 RMK A01 T00891049  RH  037%=      5-min Rain = 0
KLE1 111135Z 35011KT 09/M05 A3016 RMK A01 T00891050  RH  037%=      5-min Rain = 0
KLE1 111136Z 35013KT 09/M05 A3016 RMK A01 T00881050  RH  037%=      5-min Rain = 0
KLE1 111137Z 34012KT 09/M05 A3016 RMK A01 T00871050  RH  038%=      5-min Rain = 0
KLE1 111138Z 34012KT 09/M05 A3016 RMK A01 T00871050  RH  037%=      5-min Rain = 0
KLE1 111139Z 35014KT 09/M05 A3017 RMK A01 T00871051  RH  037%=      5-min Rain = 0
KLE1 111140Z 35011KT 09/M05 A3017 RMK A01 T00871051  RH  037%=      5-min Rain = 0
KLE1 111141Z 35012KT 09/M05 A3017 RMK A01 T00871051  RH  037%=      5-min Rain = 0
KLE1 111142Z 35012G17KT 09/M05 A3017 RMK A01 T00861052  RH  037%=      5-min Rain = 0
KLE1 111143Z 35016KT 08/M05 A3017 RMK A01 T00841052  RH  038%=      5-min Rain = 0
KLE1 111144Z 35014KT 08/M05 A3017 RMK A01 T00841053  RH  037%=      5-min Rain = 0
KLE1 111145Z 35014KT 08/M05 A3017 RMK A01 T00841053  RH  037%=      5-min Rain = 0
KLE1 111146Z 34014KT 08/M05 A3017 RMK A01 T00841054  RH  037%=      5-min Rain = 0
KLE1 111147Z 35016KT 08/M05 A3017 RMK A01 T00841054  RH  037%=      5-min Rain = 0
KLE1 111148Z 35018KT 08/M05 A3017 RMK A01 T00841054  RH  037%=      5-min Rain = 0
KLE1 111149Z 35014KT 08/M05 A3017 RMK A01 T00841054  RH  037%=      5-min Rain = 0
KLE1 111150Z 00014G19KT 08/M05 A3017 RMK A01 T00831054  RH  037%=      5-min Rain = 0
KLE1 111151Z 36015G20KT 08/M05 A3017 RMK A01 T00831054  RH  037%=      5-min Rain = 0
KLE1 111152Z 00015KT 08/M05 A3018 RMK A01 T00831054  RH  037%=      5-min Rain = 0
KLE1 111153Z 00013KT 08/M05 A3018 RMK A01 T00821054  RH  037%=      5-min Rain = 0
KLE1 111154Z 35013KT 08/M05 A3018 RMK A01 T00821054  RH  038%=      5-min Rain = 0
KLE1 111155Z 36014KT 08/M05 A3018 RMK A01 T00811054  RH  038%=      5-min Rain = 0
KLE1 111156Z 36016KT 08/M05 A3018 RMK A01 T00811054  RH  038%=      5-min Rain = 0
KLE1 111157Z 00014KT 08/M05 A3018 RMK A01 T00811054  RH  038%=      5-min Rain = 0
KLE1 111158Z 36014KT 08/M05 A3018 RMK A01 T00811054  RH  038%=      5-min Rain = 0
KLE1 111159Z 36013KT 08/M05 A3018 RMK A01 T00811054  RH  038%=      5-min Rain = 0
KLE1 111200Z 35012KT 08/M05 A3018 RMK A01 T00801054  RH  038%=      5-min Rain = 0
KLE1 111201Z 35015G21KT 08/M05 A3018 RMK A01 T00791054  RH  038%=      5-min Rain = 0
KLE1 111202Z 36015KT 08/M05 A3018 RMK A01 T00801053  RH  038%=      5-min Rain = 0
KLE1 111203Z 35012KT 08/M05 A3018 RMK A01 T00801054  RH  038%=      5-min Rain = 0
KLE1 111204Z 35013G18KT 08/M05 A3018 RMK A01 T00801054  RH  038%=      5-min Rain = 0
KLE1 111205Z 35013KT 08/M05 A3019 RMK A01 T00801053  RH  038%=      5-min Rain = 0
KLE1 111206Z 35014KT 08/M05 A3019 RMK A01 T00791054  RH  039%=      5-min Rain = 0
KLE1 111207Z 35014KT 08/M05 A3019 RMK A01 T00791054  RH  039%=      5-min Rain = 0
KLE1 111208Z 35015KT 08/M05 A3019 RMK A01 T00791053  RH  039%=      5-min Rain = 0
KLE1 111209Z 36014KT 08/M05 A3019 RMK A01 T00791053  RH  039%=      5-min Rain = 0
KLE1 111210Z 34016KT 08/M05 A3019 RMK A01 T00781053  RH  039%=      5-min Rain = 0
KLE1 111211Z 36014KT 08/M05 A3019 RMK A01 T00791053  RH  039%=      5-min Rain = 0
KLE1 111212Z 34011KT 08/M05 A3019 RMK A01 T00791053  RH  039%=      5-min Rain = 0
KLE1 111213Z 35012KT 08/M05 A3019 RMK A01 T00781053  RH  039%=      5-min Rain = 0
KLE1 111214Z 35012KT 08/M05 A3019 RMK A01 T00771054  RH  039%=      5-min Rain = 0
KLE1 111215Z 35010KT 08/M05 A3019 RMK A01 T00761054  RH  039%=      5-min Rain = 0
KLE1 111216Z 35010KT 08/M05 A3019 RMK A01 T00761053  RH  039%=      5-min Rain = 0
KLE1 111217Z 35012KT 07/M05 A3019 RMK A01 T00741054  RH  040%=      5-min Rain = 0
KLE1 111218Z 36012KT 07/M05 A3019 RMK A01 T00731053  RH  040%=      5-min Rain = 0
KLE1 111219Z 36013KT 07/M05 A3019 RMK A01 T00741053  RH  040%=      5-min Rain = 0
KLE1 111220Z 35012KT 08/M05 A3019 RMK A01 T00751052  RH  040%=      5-min Rain = 0
KLE1 111221Z 35011KT 08/M05 A3019 RMK A01 T00751052  RH  040%=      5-min Rain = 0
KLE1 111222Z 34013KT 07/M05 A3019 RMK A01 T00741052  RH  040%=      5-min Rain = 0
KLE1 111223Z 34013KT 07/M05 A3019 RMK A01 T00741052  RH  040%=      5-min Rain = 0
KLE1 111224Z 34011KT 07/M05 A3019 RMK A01 T00741052  RH  040%=      5-min Rain = 0
KLE1 111225Z 35012KT 07/M05 A3019 RMK A01 T00731052  RH  041%=      5-min Rain = 0
KLE1 111226Z 36012KT 07/M05 A302 RMK A01 T00731052  RH  041%=      5-min Rain = 0
KLE1 111227Z 35014KT 07/M05 A3019 RMK A01 T00721051  RH  041%=      5-min Rain = 0
KLE1 111228Z 35012KT 07/M05 A302 RMK A01 T00721050  RH  041%=      5-min Rain = 0
KLE1 111229Z 35011KT 07/M05 A3019 RMK A01 T00731051  RH  041%=      5-min Rain = 0
KLE1 111230Z 35012KT 07/M05 A3019 RMK A01 T00721050  RH  041%=      5-min Rain = 0
KLE1 111231Z 35013KT 07/M05 A3019 RMK A01 T00721051  RH  041%=      5-min Rain = 0
KLE1 111232Z 35013KT 07/M05 A3019 RMK A01 T00721050  RH  042%=      5-min Rain = 0
KLE1 111233Z 35013KT 07/M05 A3019 RMK A01 T00721050  RH  042%=      5-min Rain = 0
KLE1 111234Z 35015KT 07/M05 A3019 RMK A01 T00711049  RH  042%=      5-min Rain = 0
KLE1 111235Z 35014KT 07/M05 A3019 RMK A01 T00711049  RH  042%=      5-min Rain = 0
KLE1 111236Z 35012KT 07/M05 A3019 RMK A01 T00711049  RH  042%=      5-min Rain = 0
KLE1 111237Z 35012KT 07/M05 A3019 RMK A01 T00711048  RH  042%=      5-min Rain = 0
KLE1 111238Z 35014KT 07/M05 A3019 RMK A01 T00701048  RH  043%=      5-min Rain = 0
KLE1 111239Z 00013KT 07/M05 A302 RMK A01 T00691047  RH  043%=      5-min Rain = 0
KLE1 111240Z 36011KT 07/M05 A302 RMK A01 T00691047  RH  043%=      5-min Rain = 0
KLE1 111241Z 36011KT 07/M05 A302 RMK A01 T00691047  RH  043%=      5-min Rain = 0
KLE1 111242Z 35010KT 07/M05 A302 RMK A01 T00691047  RH  043%=      5-min Rain = 0
KLE1 111243Z 35012KT 07/M05 A302 RMK A01 T00681047  RH  044%=      5-min Rain = 0
KLE1 111244Z 36014KT 07/M05 A302 RMK A01 T00681045  RH  044%=      5-min Rain = 0
KLE1 111245Z 35012KT 07/M04 A302 RMK A01 T00681044  RH  044%=      5-min Rain = 0
KLE1 111246Z 35013KT 07/M04 A302 RMK A01 T00691044  RH  044%=      5-min Rain = 0
KLE1 111247Z 35014KT 07/M04 A302 RMK A01 T00681044  RH  045%=      5-min Rain = 0
KLE1 111248Z 35012KT 07/M04 A302 RMK A01 T00691043  RH  045%=      5-min Rain = 0
KLE1 111249Z 35013KT 07/M04 A302 RMK A01 T00691043  RH  045%=      5-min Rain = 0
KLE1 111250Z 36012KT 07/M04 A302 RMK A01 T00691042  RH  045%=      5-min Rain = 0
KLE1 111251Z 36012KT 07/M04 A302 RMK A01 T00691042  RH  045%=      5-min Rain = 0
KLE1 111252Z 35012KT 07/M04 A302 RMK A01 T00691042  RH  045%=      5-min Rain = 0
KLE1 111253Z 35013KT 07/M04 A302 RMK A01 T00691042  RH  045%=      5-min Rain = 0
KLE1 111254Z 35015KT 07/M04 A302 RMK A01 T00681041  RH  045%=      5-min Rain = 0
KLE1 111255Z 35015KT 07/M04 A302 RMK A01 T00691041  RH  046%=      5-min Rain = 0
KLE1 111256Z 34014KT 07/M04 A302 RMK A01 T00681041  RH  046%=      5-min Rain = 0
KLE1 111257Z 36015KT 07/M04 A302 RMK A01 T00681040  RH  046%=      5-min Rain = 0
KLE1 111258Z 36018KT 07/M04 A302 RMK A01 T00681040  RH  046%=      5-min Rain = 0
KLE1 111259Z 36014KT 07/M04 A3021 RMK A01 T00681039  RH  046%=      5-min Rain = 0
KLE1 111300Z 36014KT 07/M04 A3021 RMK A01 T00671039  RH  046%=      5-min Rain = 0
KLE1 111301Z 36013KT 07/M04 A3021 RMK A01 T00671039  RH  047%=      5-min Rain = 0
KLE1 111302Z 00014G19KT 07/M04 A3021 RMK A01 T00661040  RH  047%=      5-min Rain = 0
KLE1 111303Z 01011KT 07/M04 A3021 RMK A01 T00661040  RH  047%=      5-min Rain = 0
KLE1 111304Z 35014KT 07/M04 A3021 RMK A01 T00651039  RH  047%=      5-min Rain = 0
KLE1 111305Z 35014KT 07/M04 A3021 RMK A01 T00651039  RH  047%=      5-min Rain = 0
KLE1 111306Z 34012KT 07/M04 A3021 RMK A01 T00651038  RH  048%=      5-min Rain = 0
KLE1 111307Z 35011KT 07/M04 A3022 RMK A01 T00651038  RH  048%=      5-min Rain = 0
KLE1 111308Z 34011KT 07/M04 A3022 RMK A01 T00651038  RH  048%=      5-min Rain = 0
KLE1 111309Z 33011KT 06/M04 A3022 RMK A01 T00641039  RH  047%=      5-min Rain = 0
KLE1 111310Z 34011KT 06/M04 A3022 RMK A01 T00631040  RH  048%=      5-min Rain = 0
KLE1 111311Z 34011KT 06/M04 A3022 RMK A01 T00631039  RH  048%=      5-min Rain = 0
KLE1 111312Z 34010KT 06/M04 A3022 RMK A01 T00621040  RH  048%=      5-min Rain = 0
KLE1 111313Z 34012KT 06/M04 A3022 RMK A01 T00611040  RH  048%=      5-min Rain = 0
KLE1 111314Z 35012KT 06/M04 A3022 RMK A01 T00611040  RH  048%=      5-min Rain = 0
KLE1 111315Z 34013KT 06/M04 A3022 RMK A01 T00611039  RH  049%=      5-min Rain = 0
KLE1 111316Z 35014KT 06/M04 A3022 RMK A01 T00621038  RH  049%=      5-min Rain = 0
KLE1 111317Z 34014KT 06/M04 A3022 RMK A01 T00621036  RH  049%=      5-min Rain = 0
KLE1 111318Z 35017KT 06/M04 A3022 RMK A01 T00621035  RH  050%=      5-min Rain = 0
KLE1 111319Z 36015KT 06/M04 A3022 RMK A01 T00621035  RH  050%=      5-min Rain = 0
KLE1 111320Z 35012KT 06/M04 A3023 RMK A01 T00621035  RH  050%=      5-min Rain = 0
KLE1 111321Z 35011KT 06/M04 A3023 RMK A01 T00621035  RH  050%=      5-min Rain = 0
KLE1 111322Z 35013KT 06/M04 A3023 RMK A01 T00611036  RH  050%=      5-min Rain = 0
KLE1 111323Z 35012KT 06/M04 A3023 RMK A01 T00601036  RH  050%=      5-min Rain = 0
KLE1 111324Z 34010KT 06/M04 A3023 RMK A01 T00601035  RH  050%=      5-min Rain = 0
KLE1 111325Z 34008KT 06/M04 A3023 RMK A01 T00601036  RH  050%=      5-min Rain = 0
KLE1 111326Z 33009KT 06/M04 A3023 RMK A01 T00591037  RH  050%=      5-min Rain = 0
KLE1 111327Z 33009KT 06/M04 A3023 RMK A01 T00581037  RH  050%=      5-min Rain = 0
KLE1 111328Z 33007KT 06/M04 A3023 RMK A01 T00581037  RH  050%=      5-min Rain = 0
KLE1 111329Z 33009KT 06/M04 A3023 RMK A01 T00571038  RH  051%=      5-min Rain = 0
KLE1 111330Z 34011KT 06/M04 A3023 RMK A01 T00561037  RH  051%=      5-min Rain = 0
KLE1 111331Z 34009KT 06/M04 A3023 RMK A01 T00561037  RH  051%=      5-min Rain = 0
KLE1 111332Z 34011KT 06/M04 A3023 RMK A01 T00561036  RH  052%=      5-min Rain = 0
KLE1 111333Z 35013KT 06/M04 A3024 RMK A01 T00561035  RH  052%=      5-min Rain = 0
KLE1 111334Z 35013KT 06/M03 A3024 RMK A01 T00571034  RH  052%=      5-min Rain = 0
KLE1 111335Z 35011KT 06/M03 A3024 RMK A01 T00581034  RH  052%=      5-min Rain = 0
KLE1 111336Z 34012KT 06/M03 A3024 RMK A01 T00581034  RH  052%=      5-min Rain = 0
KLE1 111337Z 34015KT 06/M03 A3024 RMK A01 T00571034  RH  052%=      5-min Rain = 0
KLE1 111338Z 34014KT 06/M03 A3024 RMK A01 T00581033  RH  052%=      5-min Rain = 0
KLE1 111339Z 35013KT 06/M03 A3024 RMK A01 T00601031  RH  052%=      5-min Rain = 0
KLE1 111340Z 34013KT 06/M03 A3024 RMK A01 T00591032  RH  052%=      5-min Rain = 0
KLE1 111341Z 34017KT 06/M03 A3024 RMK A01 T00601032  RH  052%=      5-min Rain = 0
KLE1 111342Z 35015KT 06/M03 A3024 RMK A01 T00601032  RH  052%=      5-min Rain = 0
KLE1 111343Z 35013KT 06/M03 A3024 RMK A01 T00601032  RH  052%=      5-min Rain = 0
KLE1 111344Z 33013KT 06/M03 A3024 RMK A01 T00611032  RH  051%=      5-min Rain = 0
KLE1 111345Z 34013KT 06/M03 A3024 RMK A01 T00601032  RH  051%=      5-min Rain = 0
KLE1 111346Z 35013KT 06/M03 A3024 RMK A01 T00601032  RH  051%=      5-min Rain = 0
KLE1 111347Z 35013KT 06/M03 A3024 RMK A01 T00601032  RH  051%=      5-min Rain = 0
KLE1 111348Z 35013KT 06/M03 A3024 RMK A01 T00601032  RH  052%=      5-min Rain = 0
KLE1 111349Z 36012KT 06/M03 A3024 RMK A01 T00601032  RH  052%=      5-min Rain = 0
KLE1 111350Z 36011KT 06/M03 A3024 RMK A01 T00591032  RH  052%=      5-min Rain = 0
KLE1 111351Z 35010KT 06/M03 A3024 RMK A01 T00591032  RH  052%=      5-min Rain = 0
KLE1 111352Z 35013KT 06/M03 A3024 RMK A01 T00591032  RH  052%=      5-min Rain = 0
KLE1 111353Z 35016KT 06/M03 A3024 RMK A01 T00601031  RH  052%=      5-min Rain = 0
KLE1 111354Z 35013KT 06/M03 A3024 RMK A01 T00611031  RH  052%=      5-min Rain = 0
KLE1 111355Z 34014KT 06/M03 A3024 RMK A01 T00621031  RH  052%=      5-min Rain = 0
KLE1 111356Z 34013KT 06/M03 A3024 RMK A01 T00621031  RH  051%=      5-min Rain = 0
KLE1 111357Z 35013KT 06/M03 A3024 RMK A01 T00631031  RH  051%=      5-min Rain = 0
KLE1 111358Z 35015KT 06/M03 A3024 RMK A01 T00641032  RH  051%=      5-min Rain = 0
KLE1 111359Z 35015KT 06/M03 A3024 RMK A01 T00641033  RH  050%=      5-min Rain = 0
KLE1 111400Z 36016KT 06/M03 A3024 RMK A01 T00641033  RH  050%=      5-min Rain = 0
KLE1 111401Z 34015KT 06/M03 A3024 RMK A01 T00641033  RH  050%=      5-min Rain = 0
KLE1 111402Z 34018KT 07/M03 A3024 RMK A01 T00651033  RH  050%=      5-min Rain = 0
KLE1 111403Z 35016KT 07/M03 A3024 RMK A01 T00651034  RH  049%=      5-min Rain = 0
KLE1 111404Z 35019KT 07/M03 A3024 RMK A01 T00651034  RH  049%=      5-min Rain = 0
KLE1 111405Z 36018KT 07/M03 A3024 RMK A01 T00651034  RH  049%=      5-min Rain = 0
KLE1 111406Z 36016KT 07/M04 A3024 RMK A01 T00651036  RH  048%=      5-min Rain = 0
KLE1 111407Z 35017KT 07/M04 A3025 RMK A01 T00651037  RH  048%=      5-min Rain = 0
KLE1 111408Z 36016KT 07/M04 A3025 RMK A01 T00651037  RH  048%=      5-min Rain = 0
KLE1 111409Z 34017KT 06/M04 A3025 RMK A01 T00641037  RH  048%=      5-min Rain = 0
KLE1 111410Z 34018KT 07/M04 A3025 RMK A01 T00651038  RH  048%=      5-min Rain = 0
KLE1 111411Z 35014KT 07/M04 A3025 RMK A01 T00651039  RH  047%=      5-min Rain = 0
KLE1 111412Z 00019G27KT 07/M04 A3025 RMK A01 T00661038  RH  047%=      5-min Rain = 0
KLE1 111413Z 01019G25KT 07/M04 A3025 RMK A01 T00671043  RH  045%=      5-min Rain = 0
KLE1 111414Z 00015KT 07/M05 A3025 RMK A01 T00661046  RH  045%=      5-min Rain = 0
KLE1 111415Z 35018KT 07/M05 A3025 RMK A01 T00661045  RH  045%=      5-min Rain = 0
KLE1 111416Z 00019KT 07/M04 A3025 RMK A01 T00661044  RH  045%=      5-min Rain = 0
KLE1 111417Z 35019KT 07/M05 A3025 RMK A01 T00661045  RH  045%=      5-min Rain = 0
KLE1 111418Z 36017KT 07/M05 A3025 RMK A01 T00661046  RH  045%=      5-min Rain = 0
KLE1 111419Z 01020G25KT 07/M05 A3025 RMK A01 T00651046  RH  045%=      5-min Rain = 0
KLE1 111420Z 00022KT 06/M05 A3026 RMK A01 T00641047  RH  045%=      5-min Rain = 0
KLE1 111421Z 00019KT 06/M05 A3026 RMK A01 T00631047  RH  045%=      5-min Rain = 0
KLE1 111422Z 00018KT 06/M05 A3026 RMK A01 T00631047  RH  045%=      5-min Rain = 0
KLE1 111423Z 01018KT 06/M05 A3026 RMK A01 T00631047  RH  045%=      5-min Rain = 0
KLE1 111424Z 01016KT 06/M05 A3026 RMK A01 T00631047  RH  045%=      5-min Rain = 0
KLE1 111425Z 01018KT 06/M05 A3026 RMK A01 T00631047  RH  045%=      5-min Rain = 0
KLE1 111426Z 36016KT 06/M05 A3026 RMK A01 T00631048  RH  045%=      5-min Rain = 0
KLE1 111427Z 35016KT 06/M05 A3026 RMK A01 T00631049  RH  044%=      5-min Rain = 0
KLE1 111428Z 35021KT 06/M05 A3026 RMK A01 T00631051  RH  044%=      5-min Rain = 0
KLE1 111429Z 35018KT 06/M05 A3026 RMK A01 T00631053  RH  043%=      5-min Rain = 0
KLE1 111430Z 36020KT 06/M05 A3026 RMK A01 T00631053  RH  043%=      5-min Rain = 0
KLE1 111431Z 36019G24KT 06/M06 A3026 RMK A01 T00621055  RH  043%=      5-min Rain = 0
KLE1 111432Z 00020KT 06/M06 A3026 RMK A01 T00621056  RH  043%=      5-min Rain = 0
KLE1 111433Z 01019KT 06/M06 A3026 RMK A01 T00621055  RH  043%=      5-min Rain = 0
KLE1 111434Z 00019KT 06/M06 A3026 RMK A01 T00621055  RH  043%=      5-min Rain = 0
KLE1 111435Z 01017KT 06/M06 A3026 RMK A01 T00621056  RH  043%=      5-min Rain = 0
KLE1 111436Z 00016KT 06/M05 A3026 RMK A01 T00641054  RH  043%=      5-min Rain = 0
KLE1 111437Z 35016KT 07/M05 A3026 RMK A01 T00661054  RH  042%=      5-min Rain = 0
KLE1 111438Z 34017KT 07/M05 A3026 RMK A01 T00671054  RH  042%=      5-min Rain = 0
KLE1 111439Z 35017KT 07/M05 A3026 RMK A01 T00681054  RH  041%=      5-min Rain = 0
KLE1 111440Z 35019KT 07/M05 A3026 RMK A01 T00691054  RH  041%=      5-min Rain = 0
KLE1 111441Z 35018KT 07/M05 A3026 RMK A01 T00691054  RH  041%=      5-min Rain = 0
KLE1 111442Z 35017KT 07/M05 A3026 RMK A01 T00721051  RH  041%=      5-min Rain = 0
KLE1 111443Z 35018KT 07/M05 A3026 RMK A01 T00731052  RH  040%=      5-min Rain = 0
KLE1 111444Z 35013KT 07/M05 A3026 RMK A01 T00731053  RH  040%=      5-min Rain = 0
KLE1 111445Z 35016KT 08/M05 A3026 RMK A01 T00751050  RH  041%=      5-min Rain = 0
KLE1 111446Z 35018KT 08/M05 A3026 RMK A01 T00751052  RH  040%=      5-min Rain = 0
KLE1 111447Z 35013KT 07/M05 A3026 RMK A01 T00741050  RH  041%=      5-min Rain = 0
KLE1 111448Z 36013KT 08/M05 A3026 RMK A01 T00751049  RH  041%=      5-min Rain = 0
KLE1 111449Z 35013KT 08/M05 A3026 RMK A01 T00781048  RH  041%=      5-min Rain = 0
KLE1 111450Z 34014KT 08/M05 A3026 RMK A01 T00781048  RH  041%=      5-min Rain = 0
KLE1 111451Z 34013G19KT 08/M05 A3026 RMK A01 T00771047  RH  041%=      5-min Rain = 0
KLE1 111452Z 33016KT 08/M05 A3026 RMK A01 T00761048  RH  041%=      5-min Rain = 0
KLE1 111453Z 34016KT 08/M05 A3026 RMK A01 T00751048  RH  041%=      5-min Rain = 0
KLE1 111454Z 34016KT 08/M05 A3026 RMK A01 T00751048  RH  042%=      5-min Rain = 0
KLE1 111455Z 35014KT 08/M05 A3026 RMK A01 T00751047  RH  042%=      5-min Rain = 0
KLE1 111456Z 36015KT 08/M05 A3027 RMK A01 T00761048  RH  041%=      5-min Rain = 0
KLE1 111457Z 35015KT 08/M05 A3027 RMK A01 T00761050  RH  040%=      5-min Rain = 0
KLE1 111458Z 34017G22KT 08/M05 A3027 RMK A01 T00761050  RH  040%=      5-min Rain = 0
KLE1 111459Z 36019KT 07/M05 A3027 RMK A01 T00731052  RH  040%=      5-min Rain = 0
KLE1 111500Z 00019G25KT 07/M05 A3027 RMK A01 T00721054  RH  040%=      5-min Rain = 0
KLE1 111501Z 01016KT 07/M05 A3027 RMK A01 T00711054  RH  040%=      5-min Rain = 0
KLE1 111502Z 36016KT 07/M06 A3028 RMK A01 T00701055  RH  041%=      5-min Rain = 0
KLE1 111503Z 36017KT 07/M05 A3028 RMK A01 T00701054  RH  041%=      5-min Rain = 0
KLE1 111504Z 35016KT 07/M05 A3028 RMK A01 T00701054  RH  041%=      5-min Rain = 0
KLE1 111505Z 35017KT 07/M06 A3028 RMK A01 T00701055  RH  041%=      5-min Rain = 0
KLE1 111506Z 34014KT 07/M06 A3028 RMK A01 T00701055  RH  041%=      5-min Rain = 0
KLE1 111507Z 35017KT 07/M05 A3028 RMK A01 T00711054  RH  041%=      5-min Rain = 0
KLE1 111508Z 35019KT 07/M06 A3028 RMK A01 T00711056  RH  040%=      5-min Rain = 0
KLE1 111509Z 36018G23KT 07/M06 A3028 RMK A01 T00701058  RH  040%=      5-min Rain = 0
KLE1 111510Z 34020KT 07/M06 A3028 RMK A01 T00701059  RH  039%=      5-min Rain = 0
KLE1 111511Z 36016KT 07/M06 A3028 RMK A01 T00691059  RH  039%=      5-min Rain = 0
KLE1 111512Z 35019KT 07/M06 A3028 RMK A01 T00701058  RH  040%=      5-min Rain = 0
KLE1 111513Z 36015KT 07/M06 A3028 RMK A01 T00691058  RH  040%=      5-min Rain = 0
KLE1 111514Z 35015KT 07/M06 A3028 RMK A01 T00691059  RH  039%=      5-min Rain = 0
KLE1 111515Z 35012KT 07/M06 A3028 RMK A01 T00701058  RH  040%=      5-min Rain = 0
KLE1 111516Z 36013KT 07/M06 A3028 RMK A01 T00731056  RH  039%=      5-min Rain = 0
KLE1 111517Z 35014KT 08/M06 A3028 RMK A01 T00771056  RH  038%=      5-min Rain = 0
KLE1 111518Z 35014KT 08/M06 A3028 RMK A01 T00791056  RH  038%=      5-min Rain = 0
KLE1 111519Z 36016G21KT 08/M06 A3028 RMK A01 T00811056  RH  037%=      5-min Rain = 0
KLE1 111520Z 36018KT 08/M06 A3028 RMK A01 T00821058  RH  037%=      5-min Rain = 0
KLE1 111521Z 35015KT 08/M06 A3028 RMK A01 T00821058  RH  036%=      5-min Rain = 0
KLE1 111522Z 35016G21KT 08/M06 A3028 RMK A01 T00841056  RH  037%=      5-min Rain = 0
KLE1 111523Z 34017KT 09/M06 A3028 RMK A01 T00851058  RH  036%=      5-min Rain = 0
KLE1 111524Z 35019KT 08/M06 A3028 RMK A01 T00831061  RH  035%=      5-min Rain = 0
KLE1 111525Z 35019KT 08/M06 A3028 RMK A01 T00811063  RH  036%=      5-min Rain = 0
KLE1 111526Z 35021KT 08/M06 A3028 RMK A01 T00811061  RH  036%=      5-min Rain = 0
KLE1 111527Z 35018G23KT 08/M06 A3028 RMK A01 T00831061  RH  036%=      5-min Rain = 0
KLE1 111528Z 35019G24KT 09/M06 A3028 RMK A01 T00851059  RH  036%=      5-min Rain = 0
KLE1 111529Z 35019KT 09/M06 A3028 RMK A01 T00861061  RH  035%=      5-min Rain = 0
KLE1 111530Z 34018KT 08/M06 A3028 RMK A01 T00841062  RH  035%=      5-min Rain = 0
KLE1 111531Z 35019KT 09/M06 A3028 RMK A01 T00861060  RH  035%=      5-min Rain = 0
KLE1 111532Z 35021KT 09/M06 A3028 RMK A01 T00851062  RH  035%=      5-min Rain = 0
KLE1 111533Z 35018KT 09/M06 A3028 RMK A01 T00851062  RH  035%=      5-min Rain = 0
KLE1 111534Z 36017KT 09/M06 A3028 RMK A01 T00851061  RH  035%=      5-min Rain = 0
KLE1 111535Z 00017G23KT 09/M06 A3028 RMK A01 T00851062  RH  035%=      5-min Rain = 0
KLE1 111536Z 00020KT 09/M06 A3028 RMK A01 T00851063  RH  034%=      5-min Rain = 0
KLE1 111537Z 36020KT 09/M06 A3028 RMK A01 T00851063  RH  034%=      5-min Rain = 0
KLE1 111538Z 36019KT 08/M06 A3028 RMK A01 T00831064  RH  035%=      5-min Rain = 0
KLE1 111539Z 36015KT 08/M07 A3028 RMK A01 T00801065  RH  035%=      5-min Rain = 0
KLE1 111540Z 35014KT 08/M06 A3029 RMK A01 T00811062  RH  036%=      5-min Rain = 0
KLE1 111541Z 01015KT 08/M06 A3029 RMK A01 T00831061  RH  035%=      5-min Rain = 0
KLE1 111542Z 00017KT 08/M06 A3028 RMK A01 T00841061  RH  035%=      5-min Rain = 0
KLE1 111543Z 36017KT 08/M06 A3029 RMK A01 T00831062  RH  035%=      5-min Rain = 0
KLE1 111544Z 35015KT 08/M06 A3029 RMK A01 T00841061  RH  035%=      5-min Rain = 0
KLE1 111545Z 36016KT 09/M06 A3028 RMK A01 T00851062  RH  035%=      5-min Rain = 0
KLE1 111546Z 35014KT 08/M06 A3029 RMK A01 T00831062  RH  035%=      5-min Rain = 0
KLE1 111547Z 36015KT 08/M06 A3029 RMK A01 T00841060  RH  036%=      5-min Rain = 0
KLE1 111548Z 36014KT 09/M06 A3029 RMK A01 T00871059  RH  035%=      5-min Rain = 0
KLE1 111549Z 35017KT 09/M06 A3029 RMK A01 T00881061  RH  034%=      5-min Rain = 0
KLE1 111550Z 34016KT 09/M06 A3029 RMK A01 T00871062  RH  034%=      5-min Rain = 0
KLE1 111551Z 34018KT 09/M06 A3029 RMK A01 T00871061  RH  035%=      5-min Rain = 0
KLE1 111552Z 35020KT 09/M06 A3029 RMK A01 T00861062  RH  035%=      5-min Rain = 0
KLE1 111553Z 34018KT 09/M06 A3029 RMK A01 T00851062  RH  035%=      5-min Rain = 0
KLE1 111554Z 35018KT 09/M06 A3029 RMK A01 T00851063  RH  034%=      5-min Rain = 0
KLE1 111555Z 35018KT 08/M07 A3029 RMK A01 T00831065  RH  034%=      5-min Rain = 0
KLE1 111556Z 34017KT 08/M06 A3029 RMK A01 T00821064  RH  035%=      5-min Rain = 0
KLE1 111557Z 35018KT 08/M06 A3029 RMK A01 T00831064  RH  035%=      5-min Rain = 0
KLE1 111558Z 00019KT 08/M06 A3029 RMK A01 T00841063  RH  035%=      5-min Rain = 0
KLE1 111559Z 00019KT 08/M06 A3029 RMK A01 T00831063  RH  035%=      5-min Rain = 0
KLE1 111600Z 00018KT 08/M06 A3029 RMK A01 T00831063  RH  035%=      5-min Rain = 0
KLE1 111601Z 01018KT 08/M06 A3029 RMK A01 T00841064  RH  034%=      5-min Rain = 0
KLE1 111602Z 00015KT 08/M06 A3029 RMK A01 T00841064  RH  034%=      5-min Rain = 0
KLE1 111603Z 00016KT 09/M06 A3029 RMK A01 T00851063  RH  034%=      5-min Rain = 0
KLE1 111604Z 35017KT 09/M06 A3029 RMK A01 T00861064  RH  034%=      5-min Rain = 0
KLE1 111605Z 35015KT 09/M06 A3029 RMK A01 T00861062  RH  035%=      5-min Rain = 0
KLE1 111606Z 36014KT 09/M06 A3029 RMK A01 T00861061  RH  035%=      5-min Rain = 0
KLE1 111607Z 36014KT 09/M06 A3029 RMK A01 T00881060  RH  034%=      5-min Rain = 0
KLE1 111608Z 36014KT 09/M06 A303 RMK A01 T00901060  RH  034%=      5-min Rain = 0
KLE1 111609Z 36013KT 09/M06 A303 RMK A01 T00901061  RH  034%=      5-min Rain = 0
KLE1 111610Z 35017KT 09/M06 A303 RMK A01 T00901061  RH  034%=      5-min Rain = 0
KLE1 111611Z 35015KT 09/M06 A303 RMK A01 T00901061  RH  034%=      5-min Rain = 0
KLE1 111612Z 35014KT 09/M06 A303 RMK A01 T00921060  RH  034%=      5-min Rain = 0
KLE1 111613Z 35015KT 09/M06 A303 RMK A01 T00921061  RH  033%=      5-min Rain = 0
KLE1 111614Z 34015KT 09/M06 A303 RMK A01 T00901062  RH  033%=      5-min Rain = 0
KLE1 111615Z 35017KT 09/M06 A303 RMK A01 T00891063  RH  034%=      5-min Rain = 0
KLE1 111616Z 35015KT 09/M06 A303 RMK A01 T00881063  RH  034%=      5-min Rain = 0
KLE1 111617Z 36018KT 09/M06 A303 RMK A01 T00871063  RH  034%=      5-min Rain = 0
KLE1 111618Z 35018KT 09/M06 A303 RMK A01 T00871063  RH  034%=      5-min Rain = 0
KLE1 111619Z 36017G25KT 09/M06 A303 RMK A01 T00871064  RH  034%=      5-min Rain = 0
KLE1 111620Z 36020G25KT 09/M07 A303 RMK A01 T00891066  RH  033%=      5-min Rain = 0
KLE1 111621Z 35019KT 09/M07 A303 RMK A01 T00911066  RH  032%=      5-min Rain = 0
KLE1 111622Z 34020KT 09/M07 A303 RMK A01 T00941065  RH  032%=      5-min Rain = 0
KLE1 111623Z 35021G26KT 10/M07 A303 RMK A01 T00961065  RH  032%=      5-min Rain = 0
KLE1 111624Z 34023KT 10/M07 A303 RMK A01 T00981066  RH  031%=      5-min Rain = 0
KLE1 111625Z 36023KT 10/M07 A303 RMK A01 T00981067  RH  031%=      5-min Rain = 0
KLE1 111626Z 36021KT 10/M07 A303 RMK A01 T01001065  RH  031%=      5-min Rain = 0
KLE1 111627Z 00021G27KT 10/M07 A303 RMK A01 T01021065  RH  030%=      5-min Rain = 0
KLE1 111628Z 00019G24KT 10/M07 A303 RMK A01 T01021065  RH  030%=      5-min Rain = 0
KLE1 111629Z 01019KT 10/M07 A303 RMK A01 T01021065  RH  030%=      5-min Rain = 0
KLE1 111630Z 01017KT 10/M06 A303 RMK A01 T01021064  RH  030%=      5-min Rain = 0
KLE1 111631Z 00019KT 10/M06 A303 RMK A01 T01021063  RH  031%=      5-min Rain = 0
KLE1 111632Z 34017KT 10/M06 A303 RMK A01 T01041062  RH  031%=      5-min Rain = 0
KLE1 111633Z 33016KT 11/M06 A303 RMK A01 T01071061  RH  030%=      5-min Rain = 0
KLE1 111634Z 35020KT 11/M06 A303 RMK A01 T01061062  RH  030%=      5-min Rain = 0
KLE1 111635Z 36018KT 11/M06 A303 RMK A01 T01071062  RH  030%=      5-min Rain = 0
KLE1 111636Z 35015KT 11/M06 A303 RMK A01 T01101061  RH  030%=      5-min Rain = 0
KLE1 111637Z 34018KT 11/M06 A303 RMK A01 T01141059  RH  029%=      5-min Rain = 0
KLE1 111638Z 34019G24KT 12/M06 A303 RMK A01 T01151063  RH  028%=      5-min Rain = 0
KLE1 111639Z 34020KT 11/M06 A303 RMK A01 T01121063  RH  029%=      5-min Rain = 0
KLE1 111640Z 34021KT 11/M06 A303 RMK A01 T01131063  RH  029%=      5-min Rain = 0
KLE1 111641Z 34019KT 11/M07 A303 RMK A01 T01091065  RH  029%=      5-min Rain = 0
KLE1 111642Z 34019KT 11/M06 A303 RMK A01 T01081063  RH  029%=      5-min Rain = 0
KLE1 111643Z 33019KT 11/M06 A303 RMK A01 T01071064  RH  029%=      5-min Rain = 0
KLE1 111644Z 33019KT 10/M07 A303 RMK A01 T01041067  RH  030%=      5-min Rain = 0
KLE1 111645Z 35024KT 10/M07 A303 RMK A01 T01011067  RH  030%=      5-min Rain = 0
KLE1 111646Z 35022KT 10/M07 A303 RMK A01 T01001069  RH  030%=      5-min Rain = 0
KLE1 111647Z 35022KT 10/M07 A303 RMK A01 T01011068  RH  030%=      5-min Rain = 0
KLE1 111648Z 34021KT 10/M07 A303 RMK A01 T01011068  RH  030%=      5-min Rain = 0
KLE1 111649Z 35020KT 10/M07 A303 RMK A01 T01001066  RH  030%=      5-min Rain = 0
KLE1 111650Z 35023KT 10/M07 A303 RMK A01 T00991066  RH  031%=      5-min Rain = 0
KLE1 111651Z 35017KT 10/M07 A303 RMK A01 T00981066  RH  031%=      5-min Rain = 0
KLE1 111652Z 35016KT 10/M07 A303 RMK A01 T00981066  RH  031%=      5-min Rain = 0
KLE1 111653Z 36019G24KT 10/M07 A303 RMK A01 T00981067  RH  031%=      5-min Rain = 0
KLE1 111654Z 01022KT 10/M07 A303 RMK A01 T00991067  RH  030%=      5-min Rain = 0
KLE1 111655Z 01019G24KT 10/M07 A303 RMK A01 T00991068  RH  030%=      5-min Rain = 0
KLE1 111656Z 01020KT 10/M07 A303 RMK A01 T00981068  RH  030%=      5-min Rain = 0
KLE1 111657Z 01018KT 10/M07 A303 RMK A01 T00981069  RH  030%=      5-min Rain = 0
KLE1 111658Z 01019G24KT 10/M07 A303 RMK A01 T00981068  RH  030%=      5-min Rain = 0
KLE1 111659Z 01017KT 10/M07 A303 RMK A01 T01001067  RH  030%=      5-min Rain = 0
KLE1 111700Z 01019KT 10/M07 A303 RMK A01 T01011067  RH  030%=      5-min Rain = 0
KLE1 111701Z 01018KT 10/M07 A303 RMK A01 T00991068  RH  030%=      5-min Rain = 0
KLE1 111702Z 01017KT 10/M07 A303 RMK A01 T00971068  RH  031%=      5-min Rain = 0
KLE1 111703Z 01016KT 10/M07 A303 RMK A01 T00971067  RH  031%=      5-min Rain = 0
KLE1 111704Z 01015KT 10/M07 A303 RMK A01 T00971067  RH  031%=      5-min Rain = 0
KLE1 111705Z 00015KT 10/M07 A303 RMK A01 T00991065  RH  031%=      5-min Rain = 0
KLE1 111706Z 01016KT 10/M07 A303 RMK A01 T00991066  RH  031%=      5-min Rain = 0
KLE1 111707Z 01017KT 10/M07 A303 RMK A01 T00991065  RH  031%=      5-min Rain = 0
KLE1 111708Z 36016KT 10/M07 A303 RMK A01 T00981065  RH  031%=      5-min Rain = 0
KLE1 111709Z 01018KT 10/M06 A303 RMK A01 T00991063  RH  031%=      5-min Rain = 0
KLE1 111710Z 01015KT 10/M06 A303 RMK A01 T01001063  RH  031%=      5-min Rain = 0
KLE1 111711Z 02016KT 10/M06 A303 RMK A01 T01011062  RH  031%=      5-min Rain = 0
KLE1 111712Z 01013KT 10/M06 A303 RMK A01 T01011063  RH  031%=      5-min Rain = 0
KLE1 111713Z 01013KT 10/M06 A303 RMK A01 T01001063  RH  031%=      5-min Rain = 0
KLE1 111714Z 36017KT 10/M06 A303 RMK A01 T01011061  RH  031%=      5-min Rain = 0
KLE1 111715Z 36014KT 10/M06 A303 RMK A01 T01021061  RH  031%=      5-min Rain = 0
KLE1 111716Z 35014KT 10/M06 A303 RMK A01 T01011061  RH  031%=      5-min Rain = 0
KLE1 111717Z 35013KT 10/M06 A303 RMK A01 T01011061  RH  031%=      5-min Rain = 0
KLE1 111718Z 00015KT 10/M06 A303 RMK A01 T01001060  RH  032%=      5-min Rain = 0
KLE1 111719Z 34014G19KT 10/M06 A303 RMK A01 T01001060  RH  032%=      5-min Rain = 0
KLE1 111720Z 33017KT 10/M06 A303 RMK A01 T01001059  RH  032%=      5-min Rain = 0
KLE1 111721Z 34014KT 10/M06 A303 RMK A01 T01011059  RH  032%=      5-min Rain = 0
KLE1 111722Z 33015KT 10/M06 A303 RMK A01 T01021059  RH  032%=      5-min Rain = 0
KLE1 111723Z 34013KT 10/M06 A303 RMK A01 T01021059  RH  032%=      5-min Rain = 0
KLE1 111724Z 35012KT 10/M06 A303 RMK A01 T01041058  RH  032%=      5-min Rain = 0
KLE1 111725Z 35015G23KT 11/M06 A303 RMK A01 T01061057  RH  031%=      5-min Rain = 0
KLE1 111726Z 35019KT 11/M06 A303 RMK A01 T01061060  RH  030%=      5-min Rain = 0
KLE1 111727Z 35018KT 11/M06 A303 RMK A01 T01061062  RH  030%=      5-min Rain = 0
KLE1 111728Z 35017KT 10/M06 A303 RMK A01 T01041063  RH  030%=      5-min Rain = 0
KLE1 111729Z 34016KT 10/M06 A303 RMK A01 T01041063  RH  030%=      5-min Rain = 0
KLE1 111730Z 35014KT 10/M06 A303 RMK A01 T01031063  RH  030%=      5-min Rain = 0
KLE1 111731Z 34013KT 11/M06 A303 RMK A01 T01051062  RH  030%=      5-min Rain = 0
KLE1 111732Z 34018KT 11/M06 A303 RMK A01 T01081062  RH  030%=      5-min Rain = 0
KLE1 111733Z 34016KT 11/M06 A303 RMK A01 T01071064  RH  030%=      5-min Rain = 0
KLE1 111734Z 34013KT 11/M07 A303 RMK A01 T01051065  RH  030%=      5-min Rain = 0
KLE1 111735Z 00015KT 10/M07 A303 RMK A01 T01041065  RH  030%=      5-min Rain = 0
KLE1 111736Z 01015KT 11/M07 A3029 RMK A01 T01051065  RH  030%=      5-min Rain = 0
KLE1 111737Z 00013KT 11/M07 A3029 RMK A01 T01071065  RH  029%=      5-min Rain = 0
KLE1 111738Z 35015G21KT 11/M07 A3029 RMK A01 T01071066  RH  029%=      5-min Rain = 0
KLE1 111739Z 36016G21KT 11/M07 A3029 RMK A01 T01081067  RH  029%=      5-min Rain = 0
KLE1 111740Z 35021KT 11/M07 A3029 RMK A01 T01101066  RH  028%=      5-min Rain = 0
KLE1 111741Z 35017KT 11/M07 A3029 RMK A01 T01101068  RH  028%=      5-min Rain = 0
KLE1 111742Z 34017KT 11/M07 A3029 RMK A01 T01111068  RH  028%=      5-min Rain = 0
KLE1 111743Z 34018KT 11/M07 A3029 RMK A01 T01131070  RH  027%=      5-min Rain = 0
KLE1 111744Z 35020KT 12/M07 A3029 RMK A01 T01161068  RH  027%=      5-min Rain = 0
KLE1 111745Z 35020KT 12/M07 A3029 RMK A01 T01181069  RH  027%=      5-min Rain = 0
KLE1 111746Z 36022KT 12/M07 A3029 RMK A01 T01161072  RH  026%=      5-min Rain = 0
KLE1 111747Z 35023KT 12/M07 A3029 RMK A01 T01161071  RH  026%=      5-min Rain = 0
KLE1 111748Z 35026KT 12/M07 A3029 RMK A01 T01191071  RH  026%=      5-min Rain = 0
KLE1 111749Z 35022KT 12/M07 A3029 RMK A01 T01211072  RH  025%=      5-min Rain = 0
KLE1 111750Z 34021KT 12/M07 A3029 RMK A01 T01241069  RH  025%=      5-min Rain = 0
KLE1 111751Z 35023KT 12/M07 A3029 RMK A01 T01241071  RH  025%=      5-min Rain = 0
KLE1 111752Z 35022KT 12/M07 A3029 RMK A01 T01241070  RH  025%=      5-min Rain = 0
KLE1 111753Z 35019KT 13/M07 A3029 RMK A01 T01251071  RH  025%=      5-min Rain = 0
KLE1 111754Z 36025KT 12/M07 A3029 RMK A01 T01241072  RH  025%=      5-min Rain = 0
KLE1 111755Z 36021KT 12/M07 A3029 RMK A01 T01211074  RH  025%=      5-min Rain = 0
KLE1 111756Z 00022KT 12/M07 A3029 RMK A01 T01191073  RH  025%=      5-min Rain = 0
KLE1 111757Z 01017KT 12/M07 A3029 RMK A01 T01211070  RH  026%=      5-min Rain = 0
KLE1 111758Z 00017KT 12/M07 A3029 RMK A01 T01211071  RH  026%=      5-min Rain = 0
KLE1 111759Z 35020KT 12/M07 A3029 RMK A01 T01201072  RH  025%=      5-min Rain = 0
KLE1 111800Z 35022KT 12/M07 A3029 RMK A01 T01211072  RH  025%=      5-min Rain = 0
KLE1 111801Z 35021KT 12/M07 A3029 RMK A01 T01221073  RH  025%=      5-min Rain = 0
KLE1 111802Z 34020KT 12/M07 A3029 RMK A01 T01221073  RH  025%=      5-min Rain = 0
KLE1 111803Z 34018KT 12/M07 A3029 RMK A01 T01231071  RH  025%=      5-min Rain = 0
KLE1 111804Z 35020KT 13/M07 A3029 RMK A01 T01251069  RH  025%=      5-min Rain = 0
KLE1 111805Z 00019KT 13/M07 A3029 RMK A01 T01251069  RH  025%=      5-min Rain = 0
KLE1 111806Z 01020KT 13/M07 A3029 RMK A01 T01251071  RH  025%=      5-min Rain = 0
KLE1 111807Z 01023KT 13/M07 A3028 RMK A01 T01251073  RH  024%=      5-min Rain = 0
KLE1 111808Z 01019KT 12/M08 A3029 RMK A01 T01241076  RH  024%=      5-min Rain = 0
KLE1 111809Z 00016G21KT 12/M07 A3028 RMK A01 T01221073  RH  025%=      5-min Rain = 0
KLE1 111810Z 35018G23KT 13/M07 A3029 RMK A01 T01261069  RH  025%=      5-min Rain = 0
KLE1 111811Z 35019G24KT 13/M07 A3029 RMK A01 T01291069  RH  025%=      5-min Rain = 0
KLE1 111812Z 01021G27KT 13/M07 A3029 RMK A01 T01311070  RH  024%=      5-min Rain = 0
KLE1 111813Z 01021G28KT 13/M07 A3029 RMK A01 T01301073  RH  024%=      5-min Rain = 0
KLE1 111814Z 00020G25KT 13/M07 A3029 RMK A01 T01301073  RH  024%=      5-min Rain = 0
KLE1 111815Z 01018KT 13/M07 A3029 RMK A01 T01331070  RH  024%=      5-min Rain = 0
KLE1 111816Z 01016KT 14/M07 A3029 RMK A01 T01371068  RH  023%=      5-min Rain = 0
KLE1 111817Z 01018KT 14/M07 A3028 RMK A01 T01411068  RH  023%=      5-min Rain = 0
KLE1 111818Z 01020KT 14/M07 A3028 RMK A01 T01401073  RH  022%=      5-min Rain = 0
KLE1 111819Z 01019KT 14/M08 A3028 RMK A01 T01371076  RH  022%=      5-min Rain = 0
KLE1 111820Z 01021KT 13/M08 A3028 RMK A01 T01341076  RH  023%=      5-min Rain = 0
KLE1 111821Z 01019KT 13/M07 A3028 RMK A01 T01321074  RH  023%=      5-min Rain = 0
KLE1 111822Z 01018KT 13/M07 A3028 RMK A01 T01331072  RH  023%=      5-min Rain = 0
KLE1 111823Z 00015KT 14/M07 A3029 RMK A01 T01361070  RH  023%=      5-min Rain = 0
KLE1 111824Z 02020KT 14/M07 A3028 RMK A01 T01401069  RH  023%=      5-min Rain = 0
KLE1 111825Z 01020KT 14/M07 A3028 RMK A01 T01361074  RH  023%=      5-min Rain = 0
KLE1 111826Z 01018KT 13/M07 A3028 RMK A01 T01321073  RH  023%=      5-min Rain = 0
KLE1 111827Z 00015KT 13/M07 A3028 RMK A01 T01281073  RH  024%=      5-min Rain = 0
KLE1 111828Z 36014KT 13/M07 A3028 RMK A01 T01281071  RH  024%=      5-min Rain = 0
KLE1 111829Z 35018G25KT 13/M07 A3028 RMK A01 T01291071  RH  024%=      5-min Rain = 0
KLE1 111830Z 35019KT 13/M08 A3028 RMK A01 T01291076  RH  023%=      5-min Rain = 0
KLE1 111831Z 35021KT 13/M08 A3028 RMK A01 T01261076  RH  024%=      5-min Rain = 0
KLE1 111832Z 34020KT 13/M07 A3028 RMK A01 T01281073  RH  024%=      5-min Rain = 0
KLE1 111833Z 34019KT 13/M08 A3028 RMK A01 T01301075  RH  023%=      5-min Rain = 0
KLE1 111834Z 00021G26KT 13/M08 A3028 RMK A01 T01311076  RH  023%=      5-min Rain = 0
KLE1 111835Z 35020KT 13/M08 A3028 RMK A01 T01331078  RH  022%=      5-min Rain = 0
KLE1 111836Z 35019KT 13/M08 A3028 RMK A01 T01341078  RH  022%=      5-min Rain = 0
KLE1 111837Z 36015G20KT 13/M08 A3028 RMK A01 T01331077  RH  022%=      5-min Rain = 0
KLE1 111838Z 00017KT 13/M08 A3028 RMK A01 T01331076  RH  023%=      5-min Rain = 0
KLE1 111839Z 01016G21KT 14/M08 A3028 RMK A01 T01361078  RH  022%=      5-min Rain = 0
KLE1 111840Z 00014KT 14/M08 A3028 RMK A01 T01401079  RH  021%=      5-min Rain = 0
KLE1 111841Z 35017G24KT 14/M08 A3028 RMK A01 T01431079  RH  021%=      5-min Rain = 0
KLE1 111842Z 35023KT 14/M09 A3028 RMK A01 T01411085  RH  020%=      5-min Rain = 0
KLE1 111843Z 35023KT 13/M09 A3028 RMK A01 T01341089  RH  020%=      5-min Rain = 0
KLE1 111844Z 35022KT 13/M09 A3028 RMK A01 T01331085  RH  021%=      5-min Rain = 0
KLE1 111845Z 36025KT 13/M09 A3028 RMK A01 T01331085  RH  021%=      5-min Rain = 0
KLE1 111846Z 00022KT 13/M09 A3027 RMK A01 T01321086  RH  021%=      5-min Rain = 0
KLE1 111847Z 36020G27KT 13/M08 A3028 RMK A01 T01331083  RH  021%=      5-min Rain = 0
KLE1 111848Z 36026KT 14/M08 A3027 RMK A01 T01361082  RH  021%=      5-min Rain = 0
KLE1 111849Z 36025G30KT 14/M08 A3028 RMK A01 T01371082  RH  021%=      5-min Rain = 0
KLE1 111850Z 35023KT 14/M08 A3028 RMK A01 T01381081  RH  021%=      5-min Rain = 0
KLE1 111851Z 35022KT 14/M08 A3028 RMK A01 T01371082  RH  021%=      5-min Rain = 0
KLE1 111852Z 35021G26KT 14/M08 A3028 RMK A01 T01351082  RH  021%=      5-min Rain = 0
KLE1 111853Z 35021KT 13/M08 A3027 RMK A01 T01331082  RH  022%=      5-min Rain = 0
KLE1 111854Z 34019KT 13/M08 A3027 RMK A01 T01321082  RH  022%=      5-min Rain = 0
KLE1 111855Z 34020KT 13/M08 A3027 RMK A01 T01321080  RH  022%=      5-min Rain = 0
KLE1 111856Z 34019G24KT 13/M08 A3027 RMK A01 T01341081  RH  022%=      5-min Rain = 0
KLE1 111857Z 35022KT 14/M09 A3027 RMK A01 T01361086  RH  021%=      5-min Rain = 0
KLE1 111858Z 36024KT 14/M09 A3027 RMK A01 T01371089  RH  020%=      5-min Rain = 0
KLE1 111859Z 00021G26KT 13/M09 A3027 RMK A01 T01341089  RH  020%=      5-min Rain = 0
KLE1 111900Z 35021KT 14/M09 A3027 RMK A01 T01351086  RH  021%=      5-min Rain = 0
KLE1 111901Z 36022KT 14/M09 A3027 RMK A01 T01361086  RH  021%=      5-min Rain = 0
KLE1 111902Z 36021KT 14/M09 A3027 RMK A01 T01361086  RH  020%=      5-min Rain = 0
KLE1 111903Z 34021KT 14/M09 A3027 RMK A01 T01381087  RH  020%=      5-min Rain = 0
KLE1 111904Z 36014G21KT 14/M09 A3027 RMK A01 T01401085  RH  020%=      5-min Rain = 0
KLE1 111905Z 00013G19KT 14/M08 A3027 RMK A01 T01431079  RH  021%=      5-min Rain = 0
KLE1 111906Z 35016KT 15/M08 A3027 RMK A01 T01461082  RH  020%=      5-min Rain = 0
KLE1 111907Z 00017KT 14/M08 A3027 RMK A01 T01441083  RH  020%=      5-min Rain = 0
KLE1 111908Z 36016KT 14/M08 A3027 RMK A01 T01421081  RH  021%=      5-min Rain = 0
KLE1 111909Z 34019KT 14/M08 A3027 RMK A01 T01431084  RH  020%=      5-min Rain = 0
KLE1 111910Z 34018KT 14/M09 A3027 RMK A01 T01441089  RH  019%=      5-min Rain = 0
KLE1 111911Z 00016G21KT 14/M09 A3026 RMK A01 T01441085  RH  020%=      5-min Rain = 0
KLE1 111912Z 01018KT 14/M08 A3026 RMK A01 T01431079  RH  021%=      5-min Rain = 0
KLE1 111913Z 01016KT 14/M08 A3026 RMK A01 T01411079  RH  021%=      5-min Rain = 0
KLE1 111914Z 00016KT 14/M08 A3026 RMK A01 T01401078  RH  021%=      5-min Rain = 0
KLE1 111915Z 00012G17KT 14/M08 A3026 RMK A01 T01391079  RH  021%=      5-min Rain = 0
KLE1 111916Z 36016KT 14/M08 A3026 RMK A01 T01391079  RH  021%=      5-min Rain = 0
KLE1 111917Z 35018KT 14/M08 A3026 RMK A01 T01391084  RH  020%=      5-min Rain = 0
KLE1 111918Z 35017KT 14/M09 A3026 RMK A01 T01351089  RH  020%=      5-min Rain = 0
KLE1 111919Z 35016KT 13/M09 A3026 RMK A01 T01321090  RH  021%=      5-min Rain = 0
KLE1 111920Z 34015KT 13/M09 A3026 RMK A01 T01311088  RH  021%=      5-min Rain = 0
KLE1 111921Z 34014KT 13/M09 A3026 RMK A01 T01321088  RH  021%=      5-min Rain = 0
KLE1 111922Z 36017KT 13/M09 A3026 RMK A01 T01311089  RH  021%=      5-min Rain = 0
KLE1 111923Z 35015KT 13/M09 A3026 RMK A01 T01321092  RH  020%=      5-min Rain = 0
KLE1 111924Z 35015KT 13/M09 A3026 RMK A01 T01321093  RH  020%=      5-min Rain = 0
KLE1 111925Z 01017KT 13/M09 A3026 RMK A01 T01321093  RH  020%=      5-min Rain = 0
KLE1 111926Z 00015KT 13/M09 A3026 RMK A01 T01341093  RH  020%=      5-min Rain = 0
KLE1 111927Z 36017KT 14/M09 A3026 RMK A01 T01351094  RH  019%=      5-min Rain = 0
KLE1 111928Z 36016KT 13/M10 A3026 RMK A01 T01341096  RH  019%=      5-min Rain = 0
KLE1 111929Z 34014KT 14/M10 A3026 RMK A01 T01361096  RH  019%=      5-min Rain = 0
KLE1 111930Z 34015KT 14/M09 A3026 RMK A01 T01411094  RH  019%=      5-min Rain = 0
KLE1 111931Z 36014G19KT 14/M10 A3026 RMK A01 T01421098  RH  018%=      5-min Rain = 0
KLE1 111932Z 00017G22KT 14/M10 A3026 RMK A01 T01411101  RH  018%=      5-min Rain = 0
KLE1 111933Z 00016KT 14/M11 A3026 RMK A01 T01411107  RH  017%=      5-min Rain = 0
KLE1 111934Z 35014G20KT 14/M11 A3026 RMK A01 T01401108  RH  017%=      5-min Rain = 0
KLE1 111935Z 35018G25KT 14/M11 A3025 RMK A01 T01411107  RH  017%=      5-min Rain = 0
KLE1 111936Z 34018KT 14/M11 A3025 RMK A01 T01391109  RH  017%=      5-min Rain = 0
KLE1 111937Z 34016KT 14/M11 A3025 RMK A01 T01391108  RH  017%=      5-min Rain = 0
KLE1 111938Z 34019KT 14/M11 A3025 RMK A01 T01391109  RH  017%=      5-min Rain = 0
KLE1 111939Z 35018KT 14/M11 A3025 RMK A01 T01381109  RH  017%=      5-min Rain = 0
KLE1 111940Z 35018G23KT 14/M11 A3025 RMK A01 T01381108  RH  017%=      5-min Rain = 0
KLE1 111941Z 35017KT 14/M11 A3025 RMK A01 T01371108  RH  017%=      5-min Rain = 0
KLE1 111942Z 35016KT 14/M11 A3025 RMK A01 T01351108  RH  017%=      5-min Rain = 0
KLE1 111943Z 34016KT 13/M11 A3025 RMK A01 T01341108  RH  017%=      5-min Rain = 0
KLE1 111944Z 34021KT 14/M11 A3025 RMK A01 T01361107  RH  017%=      5-min Rain = 0
KLE1 111945Z 33018KT 14/M11 A3025 RMK A01 T01371111  RH  017%=      5-min Rain = 0
KLE1 111946Z 36019G29KT 14/M11 A3025 RMK A01 T01381110  RH  017%=      5-min Rain = 0
KLE1 111947Z 35015KT 14/M11 A3025 RMK A01 T01421108  RH  017%=      5-min Rain = 0
KLE1 111948Z 36017KT 14/M11 A3025 RMK A01 T01441110  RH  016%=      5-min Rain = 0
KLE1 111949Z 00013G18KT 14/M11 A3025 RMK A01 T01441111  RH  016%=      5-min Rain = 0
KLE1 111950Z 00019KT 15/M11 A3025 RMK A01 T01451113  RH  016%=      5-min Rain = 0
KLE1 111951Z 35018KT 15/M11 A3025 RMK A01 T01461114  RH  015%=      5-min Rain = 0
KLE1 111952Z 34014KT 15/M11 A3025 RMK A01 T01491110  RH  016%=      5-min Rain = 0
KLE1 111953Z 34013G18KT 15/M11 A3025 RMK A01 T01491111  RH  016%=      5-min Rain = 0
KLE1 111954Z 34013KT 15/M11 A3025 RMK A01 T01471112  RH  016%=      5-min Rain = 0
KLE1 111955Z 35019G24KT 15/M11 A3025 RMK A01 T01471113  RH  015%=      5-min Rain = 0
KLE1 111956Z 35021KT 15/M12 A3025 RMK A01 T01511116  RH  015%=      5-min Rain = 0
KLE1 111957Z 35020KT 15/M12 A3025 RMK A01 T01501117  RH  015%=      5-min Rain = 0
KLE1 111958Z 34019KT 15/M12 A3025 RMK A01 T01491118  RH  015%=      5-min Rain = 0
KLE1 111959Z 34021G26KT 15/M12 A3025 RMK A01 T01511118  RH  014%=      5-min Rain = 0
KLE1 112000Z 34020KT 15/M12 A3025 RMK A01 T01511121  RH  014%=      5-min Rain = 0
KLE1 112001Z 34018KT 15/M12 A3025 RMK A01 T01491124  RH  014%=      5-min Rain = 0
KLE1 112002Z 33017KT 15/M12 A3025 RMK A01 T01501122  RH  014%=      5-min Rain = 0
KLE1 112003Z 34013KT 15/M12 A3025 RMK A01 T01491122  RH  014%=      5-min Rain = 0
KLE1 112004Z 35017KT 15/M12 A3025 RMK A01 T01481120  RH  015%=      5-min Rain = 0
KLE1 112005Z 35017KT 15/M12 A3025 RMK A01 T01481121  RH  014%=      5-min Rain = 0
KLE1 112006Z 35016KT 15/M12 A3025 RMK A01 T01491122  RH  014%=      5-min Rain = 0
KLE1 112007Z 34019KT 15/M13 A3025 RMK A01 T01501127  RH  014%=      5-min Rain = 0
KLE1 112008Z 34016KT 15/M13 A3025 RMK A01 T01471128  RH  014%=      5-min Rain = 0
KLE1 112009Z 33014KT 15/M13 A3025 RMK A01 T01451130  RH  014%=      5-min Rain = 0
KLE1 112010Z 33011KT 14/M13 A3025 RMK A01 T01441131  RH  014%=      5-min Rain = 0
KLE1 112011Z 35014KT 14/M13 A3025 RMK A01 T01441131  RH  014%=      5-min Rain = 0
KLE1 112012Z 36014KT 15/M13 A3025 RMK A01 T01471128  RH  014%=      5-min Rain = 0
KLE1 112013Z 01014KT 15/M13 A3025 RMK A01 T01491125  RH  014%=      5-min Rain = 0
KLE1 112014Z 36015KT 15/M13 A3025 RMK A01 T01481128  RH  014%=      5-min Rain = 0
KLE1 112015Z 34015KT 15/M13 A3025 RMK A01 T01491133  RH  013%=      5-min Rain = 0
KLE1 112016Z 35017KT 15/M14 A3025 RMK A01 T01501135  RH  013%=      5-min Rain = 0
KLE1 112017Z 35018KT 15/M13 A3025 RMK A01 T01541133  RH  013%=      5-min Rain = 0
KLE1 112018Z 34020KT 16/M13 A3025 RMK A01 T01561131  RH  013%=      5-min Rain = 0
KLE1 112019Z 34018KT 15/M13 A3024 RMK A01 T01541130  RH  013%=      5-min Rain = 0
KLE1 112020Z 34020KT 15/M13 A3024 RMK A01 T01521132  RH  013%=      5-min Rain = 0
KLE1 112021Z 34020KT 15/M13 A3024 RMK A01 T01531133  RH  013%=      5-min Rain = 0
KLE1 112022Z 34019KT 15/M14 A3024 RMK A01 T01541136  RH  012%=      5-min Rain = 0
KLE1 112023Z 34022KT 16/M14 A3024 RMK A01 T01551137  RH  012%=      5-min Rain = 0
KLE1 112024Z 33022KT 16/M14 A3024 RMK A01 T01551138  RH  012%=      5-min Rain = 0
KLE1 112025Z 33017KT 16/M14 A3024 RMK A01 T01551138  RH  012%=      5-min Rain = 0
KLE1 112026Z 34018KT 16/M14 A3024 RMK A01 T01561140  RH  012%=      5-min Rain = 0
KLE1 112027Z 34018KT 16/M14 A3024 RMK A01 T01571144  RH  011%=      5-min Rain = 0
KLE1 112028Z 36020G25KT 16/M14 A3024 RMK A01 T01561143  RH  011%=      5-min Rain = 0
KLE1 112029Z 34019KT 16/M14 A3024 RMK A01 T01561142  RH  012%=      5-min Rain = 0
KLE1 112030Z 34020KT 16/M15 A3024 RMK A01 T01551152  RH  011%=      5-min Rain = 0
KLE1 112031Z 34019KT 16/M15 A3024 RMK A01 T01551151  RH  011%=      5-min Rain = 0
KLE1 112032Z 34020KT 16/M15 A3024 RMK A01 T01571145  RH  011%=      5-min Rain = 0
KLE1 112033Z 34020KT 16/M14 A3024 RMK A01 T01581142  RH  011%=      5-min Rain = 0
KLE1 112034Z 35019KT 16/M14 A3024 RMK A01 T01561141  RH  012%=      5-min Rain = 0
KLE1 112035Z 35018KT 15/M14 A3024 RMK A01 T01541141  RH  012%=      5-min Rain = 0
KLE1 112036Z 35019G24KT 15/M14 A3024 RMK A01 T01541139  RH  012%=      5-min Rain = 0
KLE1 112037Z 35018KT 15/M14 A3024 RMK A01 T01541142  RH  012%=      5-min Rain = 0
KLE1 112038Z 35018KT 15/M15 A3024 RMK A01 T01541148  RH  011%=      5-min Rain = 0
KLE1 112039Z 34021G26KT 15/M15 A3024 RMK A01 T01521150  RH  011%=      5-min Rain = 0
KLE1 112040Z 34020KT 15/M15 A3024 RMK A01 T01491150  RH  011%=      5-min Rain = 0
KLE1 112041Z 35017KT 15/M15 A3024 RMK A01 T01481146  RH  012%=      5-min Rain = 0
KLE1 112042Z 35020KT 15/M14 A3024 RMK A01 T01501141  RH  012%=      5-min Rain = 0
KLE1 112043Z 35020KT 15/M14 A3024 RMK A01 T01491142  RH  012%=      5-min Rain = 0
KLE1 112044Z 34017G22KT 15/M14 A3024 RMK A01 T01461144  RH  012%=      5-min Rain = 0
KLE1 112045Z 33018KT 15/M14 A3024 RMK A01 T01461142  RH  012%=      5-min Rain = 0
KLE1 112046Z 34016KT 15/M14 A3024 RMK A01 T01471141  RH  012%=      5-min Rain = 0
KLE1 112047Z 35020KT 15/M14 A3024 RMK A01 T01481141  RH  012%=      5-min Rain = 0
KLE1 112048Z 00019G25KT 15/M14 A3024 RMK A01 T01481141  RH  012%=      5-min Rain = 0
KLE1 112049Z 00018KT 15/M14 A3024 RMK A01 T01461140  RH  013%=      5-min Rain = 0
KLE1 112050Z 01016KT 15/M14 A3024 RMK A01 T01451140  RH  013%=      5-min Rain = 0
KLE1 112051Z 00017KT 14/M14 A3024 RMK A01 T01441139  RH  013%=      5-min Rain = 0
KLE1 112052Z 00017KT 14/M14 A3024 RMK A01 T01431139  RH  013%=      5-min Rain = 0
KLE1 112053Z 00016KT 14/M14 A3024 RMK A01 T01431139  RH  013%=      5-min Rain = 0
KLE1 112054Z 01014KT 14/M14 A3024 RMK A01 T01431138  RH  013%=      5-min Rain = 0
KLE1 112055Z 02014KT 14/M14 A3024 RMK A01 T01441135  RH  013%=      5-min Rain = 0
KLE1 112056Z 02017KT 15/M13 A3024 RMK A01 T01461134  RH  013%=      5-min Rain = 0
KLE1 112057Z 01019KT 15/M13 A3024 RMK A01 T01471134  RH  013%=      5-min Rain = 0
KLE1 112058Z 01021KT 15/M14 A3024 RMK A01 T01481136  RH  013%=      5-min Rain = 0
KLE1 112059Z 35017KT 15/M14 A3024 RMK A01 T01471139  RH  013%=      5-min Rain = 0
KLE1 112100Z 35015KT 15/M14 A3024 RMK A01 T01471138  RH  013%=      5-min Rain = 0
KLE1 112101Z 34015KT 15/M14 A3024 RMK A01 T01471140  RH  012%=      5-min Rain = 0
KLE1 112102Z 35013KT 15/M14 A3024 RMK A01 T01481138  RH  013%=      5-min Rain = 0
KLE1 112103Z 35017KT 15/M13 A3024 RMK A01 T01521134  RH  013%=      5-min Rain = 0
KLE1 112104Z 35016KT 16/M14 A3024 RMK A01 T01561135  RH  012%=      5-min Rain = 0
KLE1 112105Z 00018KT 16/M14 A3024 RMK A01 T01571139  RH  012%=      5-min Rain = 0
KLE1 112106Z 01018KT 16/M14 A3024 RMK A01 T01561142  RH  012%=      5-min Rain = 0
KLE1 112107Z 00019KT 16/M15 A3024 RMK A01 T01561147  RH  011%=      5-min Rain = 0
KLE1 112108Z 00018KT 15/M15 A3024 RMK A01 T01541150  RH  011%=      5-min Rain = 0
KLE1 112109Z 01018KT 15/M15 A3024 RMK A01 T01521148  RH  011%=      5-min Rain = 0
KLE1 112110Z 02020KT 15/M15 A3024 RMK A01 T01501149  RH  011%=      5-min Rain = 0
KLE1 112111Z 01017KT 15/M15 A3024 RMK A01 T01491153  RH  011%=      5-min Rain = 0
KLE1 112112Z 02014KT 15/M15 A3024 RMK A01 T01491152  RH  011%=      5-min Rain = 0
KLE1 112113Z 02017G22KT 15/M15 A3024 RMK A01 T01491148  RH  011%=      5-min Rain = 0
KLE1 112114Z 02017KT 15/M14 A3024 RMK A01 T01501143  RH  012%=      5-min Rain = 0
KLE1 112115Z 01018KT 15/M14 A3024 RMK A01 T01491141  RH  012%=      5-min Rain = 0
KLE1 112116Z 01016KT 15/M14 A3024 RMK A01 T01471143  RH  012%=      5-min Rain = 0
KLE1 112117Z 36019KT 14/M14 A3024 RMK A01 T01441143  RH  012%=      5-min Rain = 0
KLE1 112118Z 35017KT 15/M14 A3024 RMK A01 T01451142  RH  012%=      5-min Rain = 0
KLE1 112119Z 34016KT 15/M14 A3024 RMK A01 T01451144  RH  012%=      5-min Rain = 0
KLE1 112120Z 34016KT 15/M14 A3024 RMK A01 T01451144  RH  012%=      5-min Rain = 0
KLE1 112121Z 35011KT 15/M14 A3024 RMK A01 T01451144  RH  012%=      5-min Rain = 0
KLE1 112122Z 35013KT 15/M14 A3024 RMK A01 T01461142  RH  012%=      5-min Rain = 0
KLE1 112123Z 36015KT 15/M15 A3024 RMK A01 T01461146  RH  012%=      5-min Rain = 0
KLE1 112124Z 00014KT 15/M15 A3024 RMK A01 T01451146  RH  012%=      5-min Rain = 0
KLE1 112125Z 36014KT 15/M14 A3025 RMK A01 T01451143  RH  012%=      5-min Rain = 0
KLE1 112126Z 35013KT 15/M14 A3025 RMK A01 T01481140  RH  012%=      5-min Rain = 0
KLE1 112127Z 35014KT 15/M14 A3025 RMK A01 T01521137  RH  012%=      5-min Rain = 0
KLE1 112128Z 01013KT 15/M14 A3025 RMK A01 T01531141  RH  012%=      5-min Rain = 0
KLE1 112129Z 35010KT 15/M14 A3025 RMK A01 T01531140  RH  012%=      5-min Rain = 0
KLE1 112130Z 35012KT 15/M14 A3024 RMK A01 T01541138  RH  012%=      5-min Rain = 0
KLE1 112131Z 36011KT 16/M14 A3024 RMK A01 T01571135  RH  012%=      5-min Rain = 0
KLE1 112132Z 36012KT 16/M14 A3024 RMK A01 T01571137  RH  012%=      5-min Rain = 0
KLE1 112133Z 34011KT 16/M14 A3024 RMK A01 T01561136  RH  012%=      5-min Rain = 0
KLE1 112134Z 36014G19KT 16/M14 A3024 RMK A01 T01571135  RH  012%=      5-min Rain = 0
KLE1 112135Z 01018KT 16/M13 A3024 RMK A01 T01581134  RH  012%=      5-min Rain = 0
KLE1 112136Z 02018KT 16/M14 A3024 RMK A01 T01591136  RH  012%=      5-min Rain = 0
KLE1 112137Z 02016KT 16/M14 A3024 RMK A01 T01591137  RH  012%=      5-min Rain = 0
KLE1 112138Z 02016KT 16/M14 A3024 RMK A01 T01581141  RH  011%=      5-min Rain = 0
KLE1 112139Z 03015KT 16/M14 A3024 RMK A01 T01561143  RH  011%=      5-min Rain = 0
KLE1 112140Z 02015KT 16/M14 A3024 RMK A01 T01561144  RH  011%=      5-min Rain = 0
KLE1 112141Z 01015G20KT 16/M14 A3024 RMK A01 T01551144  RH  011%=      5-min Rain = 0
KLE1 112142Z 36016KT 15/M14 A3024 RMK A01 T01541144  RH  012%=      5-min Rain = 0
KLE1 112143Z 01012KT 15/M14 A3024 RMK A01 T01521144  RH  012%=      5-min Rain = 0
KLE1 112144Z 00010KT 15/M14 A3024 RMK A01 T01511143  RH  012%=      5-min Rain = 0
KLE1 112145Z 34012G18KT 15/M14 A3024 RMK A01 T01511142  RH  012%=      5-min Rain = 0
KLE1 112146Z 35015KT 15/M14 A3024 RMK A01 T01511144  RH  012%=      5-min Rain = 0
KLE1 112147Z 35015KT 15/M15 A3024 RMK A01 T01521146  RH  011%=      5-min Rain = 0
KLE1 112148Z 34015KT 15/M15 A3024 RMK A01 T01501148  RH  011%=      5-min Rain = 0
KLE1 112149Z 35013KT 15/M15 A3024 RMK A01 T01481149  RH  012%=      5-min Rain = 0
KLE1 112150Z 36011KT 15/M15 A3024 RMK A01 T01491146  RH  012%=      5-min Rain = 0
KLE1 112151Z 35014KT 15/M14 A3024 RMK A01 T01541140  RH  012%=      5-min Rain = 0
KLE1 112152Z 34015KT 16/M14 A3024 RMK A01 T01571139  RH  012%=      5-min Rain = 0
KLE1 112153Z 34014G19KT 16/M14 A3024 RMK A01 T01551141  RH  012%=      5-min Rain = 0
KLE1 112154Z 36013KT 15/M14 A3024 RMK A01 T01531141  RH  012%=      5-min Rain = 0
KLE1 112155Z 00013KT 15/M14 A3024 RMK A01 T01531144  RH  012%=      5-min Rain = 0
KLE1 112156Z 00014KT 15/M14 A3024 RMK A01 T01531144  RH  012%=      5-min Rain = 0
KLE1 112157Z 36016KT 15/M14 A3024 RMK A01 T01541142  RH  012%=      5-min Rain = 0
KLE1 112158Z 35014KT 16/M14 A3024 RMK A01 T01561142  RH  012%=      5-min Rain = 0
KLE1 112159Z 35011KT 16/M15 A3024 RMK A01 T01561146  RH  011%=      5-min Rain = 0
KLE1 112200Z 00011KT 16/M14 A3024 RMK A01 T01551144  RH  011%=      5-min Rain = 0
KLE1 112201Z 36013KT 16/M14 A3024 RMK A01 T01551144  RH  011%=      5-min Rain = 0
KLE1 112202Z 35011KT 16/M15 A3024 RMK A01 T01561145  RH  011%=      5-min Rain = 0
KLE1 112203Z 36010KT 15/M15 A3024 RMK A01 T01541147  RH  011%=      5-min Rain = 0
KLE1 112204Z 01014KT 15/M14 A3024 RMK A01 T01541144  RH  012%=      5-min Rain = 0
KLE1 112205Z 01012KT 16/M15 A3024 RMK A01 T01551145  RH  011%=      5-min Rain = 0
KLE1 112206Z 02013KT 16/M15 A3024 RMK A01 T01561146  RH  011%=      5-min Rain = 0
KLE1 112207Z 02014KT 15/M15 A3024 RMK A01 T01541148  RH  011%=      5-min Rain = 0
KLE1 112208Z 02012KT 15/M15 A3024 RMK A01 T01531149  RH  011%=      5-min Rain = 0
KLE1 112209Z 01014KT 15/M15 A3024 RMK A01 T01531148  RH  011%=      5-min Rain = 0
KLE1 112210Z 36016KT 16/M15 A3024 RMK A01 T01571147  RH  011%=      5-min Rain = 0
KLE1 112211Z 36014KT 16/M15 A3024 RMK A01 T01581151  RH  011%=      5-min Rain = 0
KLE1 112212Z 00017KT 16/M15 A3024 RMK A01 T01581154  RH  010%=      5-min Rain = 0
KLE1 112213Z 00016KT 16/M16 A3024 RMK A01 T01591158  RH  010%=      5-min Rain = 0
KLE1 112214Z 36014KT 16/M16 A3024 RMK A01 T01591157  RH  010%=      5-min Rain = 0
KLE1 112215Z 00014KT 16/M16 A3024 RMK A01 T01591156  RH  010%=      5-min Rain = 0
KLE1 112216Z 01013KT 16/M16 A3024 RMK A01 T01581158  RH  010%=      5-min Rain = 0
KLE1 112217Z 36011KT 16/M16 A3024 RMK A01 T01561160  RH  010%=      5-min Rain = 0
KLE1 112218Z 00013KT 16/M16 A3024 RMK A01 T01561158  RH  010%=      5-min Rain = 0
KLE1 112219Z 01016KT 16/M15 A3024 RMK A01 T01591149  RH  011%=      5-min Rain = 0
KLE1 112220Z 36014KT 16/M15 A3024 RMK A01 T01591145  RH  011%=      5-min Rain = 0
KLE1 112221Z 01011KT 16/M14 A3024 RMK A01 T01581144  RH  011%=      5-min Rain = 0
KLE1 112222Z 01014KT 16/M15 A3024 RMK A01 T01561147  RH  011%=      5-min Rain = 0
KLE1 112223Z 02014KT 16/M15 A3024 RMK A01 T01571151  RH  011%=      5-min Rain = 0
KLE1 112224Z 01014KT 16/M15 A3024 RMK A01 T01571154  RH  010%=      5-min Rain = 0
KLE1 112225Z 36012KT 16/M15 A3024 RMK A01 T01551154  RH  011%=      5-min Rain = 0
KLE1 112226Z 00013KT 15/M15 A3024 RMK A01 T01541153  RH  011%=      5-min Rain = 0
KLE1 112227Z 36013KT 15/M15 A3024 RMK A01 T01541153  RH  011%=      5-min Rain = 0
KLE1 112228Z 35017KT 16/M15 A3024 RMK A01 T01551150  RH  011%=      5-min Rain = 0
KLE1 112229Z 34019KT 16/M15 A3024 RMK A01 T01561149  RH  011%=      5-min Rain = 0
KLE1 112230Z 35016KT 16/M15 A3024 RMK A01 T01561149  RH  011%=      5-min Rain = 0
KLE1 112231Z 35012KT 16/M15 A3024 RMK A01 T01551148  RH  011%=      5-min Rain = 0
KLE1 112232Z 01014KT 16/M15 A3024 RMK A01 T01551148  RH  011%=      5-min Rain = 0
KLE1 112233Z 36016KT 16/M14 A3024 RMK A01 T01561141  RH  012%=      5-min Rain = 0
KLE1 112234Z 01017KT 16/M14 A3024 RMK A01 T01561137  RH  012%=      5-min Rain = 0
KLE1 112235Z 00017KT 16/M14 A3024 RMK A01 T01561139  RH  012%=      5-min Rain = 0
KLE1 112236Z 00017KT 16/M14 A3024 RMK A01 T01551141  RH  012%=      5-min Rain = 0
KLE1 112237Z 00015KT 16/M14 A3024 RMK A01 T01551142  RH  012%=      5-min Rain = 0
KLE1 112238Z 00013KT 15/M14 A3024 RMK A01 T01541142  RH  012%=      5-min Rain = 0
KLE1 112239Z 35012KT 15/M14 A3024 RMK A01 T01541141  RH  012%=      5-min Rain = 0
KLE1 112240Z 35009KT 15/M14 A3024 RMK A01 T01541141  RH  012%=      5-min Rain = 0
KLE1 112241Z 35010KT 15/M14 A3024 RMK A01 T01531140  RH  012%=      5-min Rain = 0
KLE1 112242Z 01014KT 16/M14 A3024 RMK A01 T01561136  RH  012%=      5-min Rain = 0
KLE1 112243Z 01016KT 16/M13 A3024 RMK A01 T01571134  RH  012%=      5-min Rain = 0
KLE1 112244Z 00018KT 16/M13 A3024 RMK A01 T01571133  RH  012%=      5-min Rain = 0
KLE1 112245Z 00015KT 16/M13 A3024 RMK A01 T01551134  RH  012%=      5-min Rain = 0
KLE1 112246Z 00012KT 15/M13 A3024 RMK A01 T01541134  RH  012%=      5-min Rain = 0
KLE1 112247Z 36015KT 15/M13 A3024 RMK A01 T01541132  RH  013%=      5-min Rain = 0
KLE1 112248Z 35015KT 16/M13 A3024 RMK A01 T01551132  RH  013%=      5-min Rain = 0
KLE1 112249Z 34015KT 15/M13 A3024 RMK A01 T01541132  RH  013%=      5-min Rain = 0
KLE1 112250Z 34013KT 15/M13 A3024 RMK A01 T01531133  RH  013%=      5-min Rain = 0
KLE1 112251Z 33011KT 15/M13 A3024 RMK A01 T01521132  RH  013%=      5-min Rain = 0
KLE1 112252Z 34008KT 15/M13 A3024 RMK A01 T01531131  RH  013%=      5-min Rain = 0
KLE1 112253Z 34009KT 15/M13 A3024 RMK A01 T01541130  RH  013%=      5-min Rain = 0
KLE1 112254Z 02014KT 16/M13 A3024 RMK A01 T01561128  RH  013%=      5-min Rain = 0
KLE1 112255Z 02016KT 16/M12 A3024 RMK A01 T01561123  RH  013%=      5-min Rain = 0
KLE1 112256Z 01015KT 15/M12 A3025 RMK A01 T01541121  RH  014%=      5-min Rain = 0
KLE1 112257Z 00016KT 15/M12 A3025 RMK A01 T01521119  RH  014%=      5-min Rain = 0
KLE1 112258Z 00014KT 15/M12 A3025 RMK A01 T01511119  RH  014%=      5-min Rain = 0
KLE1 112259Z 36013KT 15/M12 A3025 RMK A01 T01511120  RH  014%=      5-min Rain = 0
KLE1 112300Z 00014KT 15/M12 A3025 RMK A01 T01511121  RH  014%=      5-min Rain = 0
KLE1 112301Z 00013KT 15/M12 A3025 RMK A01 T01521122  RH  014%=      5-min Rain = 0
KLE1 112302Z 01012KT 15/M12 A3025 RMK A01 T01541121  RH  014%=      5-min Rain = 0
KLE1 112303Z 01013KT 15/M12 A3025 RMK A01 T01541121  RH  014%=      5-min Rain = 0
KLE1 112304Z 36015KT 15/M12 A3024 RMK A01 T01541117  RH  014%=      5-min Rain = 0
KLE1 112305Z 36015KT 15/M11 A3025 RMK A01 T01521113  RH  015%=      5-min Rain = 0
KLE1 112306Z 01013KT 15/M11 A3025 RMK A01 T01511112  RH  015%=      5-min Rain = 0
KLE1 112307Z 01010KT 15/M11 A3025 RMK A01 T01501112  RH  015%=      5-min Rain = 0
KLE1 112308Z 02008KT 15/M11 A3025 RMK A01 T01501112  RH  015%=      5-min Rain = 0
KLE1 112309Z 36012KT 15/M11 A3025 RMK A01 T01501112  RH  015%=      5-min Rain = 0
KLE1 112310Z 36015KT 15/M11 A3025 RMK A01 T01521106  RH  016%=      5-min Rain = 0
KLE1 112311Z 01015KT 15/M10 A3025 RMK A01 T01531102  RH  016%=      5-min Rain = 0
KLE1 112312Z 36013KT 15/M10 A3025 RMK A01 T01531101  RH  016%=      5-min Rain = 0
KLE1 112313Z 36013KT 15/M10 A3025 RMK A01 T01531100  RH  016%=      5-min Rain = 0
KLE1 112314Z 00015KT 15/M10 A3025 RMK A01 T01531101  RH  016%=      5-min Rain = 0
KLE1 112315Z 01013KT 15/M10 A3025 RMK A01 T01531101  RH  016%=      5-min Rain = 0
KLE1 112316Z 00013KT 15/M10 A3025 RMK A01 T01501101  RH  017%=      5-min Rain = 0
KLE1 112317Z 35012KT 15/M10 A3025 RMK A01 T01501100  RH  017%=      5-min Rain = 0
KLE1 112318Z 35016KT 15/M10 A3025 RMK A01 T01511100  RH  017%=      5-min Rain = 0
KLE1 112319Z 36015KT 15/M10 A3025 RMK A01 T01511100  RH  017%=      5-min Rain = 0
KLE1 112320Z 01015KT 15/M10 A3025 RMK A01 T01501100  RH  017%=      5-min Rain = 0
KLE1 112321Z 01013KT 15/M10 A3025 RMK A01 T01501099  RH  017%=      5-min Rain = 0
KLE1 112322Z 01014G19KT 15/M10 A3025 RMK A01 T01501098  RH  017%=      5-min Rain = 0
KLE1 112323Z 01013KT 15/M10 A3025 RMK A01 T01501098  RH  017%=      5-min Rain = 0
KLE1 112324Z 02013KT 15/M10 A3025 RMK A01 T01491100  RH  017%=      5-min Rain = 0
KLE1 112325Z 01014KT 15/M10 A3025 RMK A01 T01481100  RH  017%=      5-min Rain = 0
KLE1 112326Z 02014KT 15/M10 A3025 RMK A01 T01481099  RH  017%=      5-min Rain = 0
KLE1 112327Z 02013KT 15/M10 A3025 RMK A01 T01471099  RH  017%=      5-min Rain = 0
KLE1 112328Z 03012KT 15/M10 A3025 RMK A01 T01471098  RH  017%=      5-min Rain = 0
KLE1 112329Z 01012KT 15/M10 A3025 RMK A01 T01471095  RH  018%=      5-min Rain = 0
KLE1 112330Z 02013KT 15/M09 A3025 RMK A01 T01461094  RH  018%=      5-min Rain = 0
KLE1 112331Z 01014KT 15/M09 A3025 RMK A01 T01461093  RH  018%=      5-min Rain = 0
KLE1 112332Z 00015KT 15/M09 A3025 RMK A01 T01461092  RH  018%=      5-min Rain = 0
KLE1 112333Z 36015KT 15/M09 A3025 RMK A01 T01461092  RH  018%=      5-min Rain = 0
KLE1 112334Z 00014KT 15/M09 A3026 RMK A01 T01461092  RH  018%=      5-min Rain = 0
KLE1 112335Z 00013KT 15/M09 A3026 RMK A01 T01451091  RH  019%=      5-min Rain = 0
KLE1 112336Z 00010KT 15/M09 A3026 RMK A01 T01451091  RH  019%=      5-min Rain = 0
KLE1 112337Z 02015KT 15/M09 A3026 RMK A01 T01461090  RH  019%=      5-min Rain = 0
KLE1 112338Z 02013KT 15/M09 A3026 RMK A01 T01461089  RH  019%=      5-min Rain = 0
KLE1 112339Z 03014KT 15/M09 A3026 RMK A01 T01451088  RH  019%=      5-min Rain = 0
KLE1 112340Z 03013KT 14/M09 A3026 RMK A01 T01441088  RH  019%=      5-min Rain = 0
KLE1 112341Z 03013KT 14/M09 A3026 RMK A01 T01431088  RH  019%=      5-min Rain = 0
KLE1 112342Z 02012KT 14/M09 A3026 RMK A01 T01431088  RH  019%=      5-min Rain = 0
KLE1 112343Z 01014KT 14/M09 A3026 RMK A01 T01421088  RH  019%=      5-min Rain = 0
KLE1 112344Z 01013KT 14/M09 A3026 RMK A01 T01421087  RH  020%=      5-min Rain = 0
KLE1 112345Z 02014KT 14/M09 A3026 RMK A01 T01411087  RH  020%=      5-min Rain = 0
KLE1 112346Z 01016KT 14/M09 A3026 RMK A01 T01411087  RH  020%=      5-min Rain = 0
KLE1 112347Z 01015KT 14/M09 A3026 RMK A01 T01411086  RH  020%=      5-min Rain = 0
KLE1 112348Z 01016KT 14/M09 A3026 RMK A01 T01401086  RH  020%=      5-min Rain = 0
KLE1 112349Z 02013KT 14/M09 A3026 RMK A01 T01401086  RH  020%=      5-min Rain = 0
KLE1 112350Z 02010KT 14/M09 A3026 RMK A01 T01391085  RH  020%=      5-min Rain = 0
KLE1 112351Z 02014KT 14/M09 A3026 RMK A01 T01391085  RH  020%=      5-min Rain = 0
KLE1 112352Z 02010KT 14/M09 A3026 RMK A01 T01391086  RH  020%=      5-min Rain = 0
KLE1 112353Z 03012KT 14/M09 A3026 RMK A01 T01391086  RH  020%=      5-min Rain = 0
KLE1 112354Z 03011KT 14/M09 A3026 RMK A01 T01391085  RH  020%=      5-min Rain = 0
KLE1 112355Z 02012KT 14/M09 A3026 RMK A01 T01381086  RH  020%=      5-min Rain = 0
KLE1 112356Z 02011KT 14/M09 A3026 RMK A01 T01381085  RH  021%=      5-min Rain = 0
KLE1 112357Z 03012KT 14/M09 A3026 RMK A01 T01371085  RH  021%=      5-min Rain = 0
KLE1 112358Z 03013KT 14/M08 A3026 RMK A01 T01361084  RH  021%=      5-min Rain = 0
KLE1 112359Z 03012KT 14/M08 A3026 RMK A01 T01361084  RH  021%=      5-min Rain = 0
KLE1 120000Z 04011KT 14/M08 A3026 RMK A01 T01361084  RH  021%=      5-min Rain = 0
KLE1 120001Z 02009KT 14/M08 A3026 RMK A01 T01361084  RH  021%=      5-min Rain = 0
KLE1 120002Z 02010KT 14/M08 A3027 RMK A01 T01361084  RH  021%=      5-min Rain = 0
KLE1 120003Z 01011KT 14/M08 A3027 RMK A01 T01361084  RH  021%=      5-min Rain = 0
KLE1 120004Z 01012KT 14/M09 A3027 RMK A01 T01361086  RH  021%=      5-min Rain = 0
KLE1 120005Z 01012KT 14/M09 A3027 RMK A01 T01361086  RH  021%=      5-min Rain = 0
KLE1 120006Z 01013KT 14/M09 A3027 RMK A01 T01361085  RH  021%=      5-min Rain = 0
KLE1 120007Z 00013KT 14/M09 A3027 RMK A01 T01361085  RH  021%=      5-min Rain = 0
KLE1 120008Z 00013KT 14/M09 A3027 RMK A01 T01351086  RH  021%=      5-min Rain = 0
KLE1 120009Z 01013KT 13/M09 A3027 RMK A01 T01341086  RH  021%=      5-min Rain = 0
KLE1 120010Z 00012KT 13/M09 A3027 RMK A01 T01341085  RH  021%=      5-min Rain = 0
KLE1 120011Z 00011KT 13/M09 A3027 RMK A01 T01321086  RH  021%=      5-min Rain = 0
KLE1 120012Z 01010KT 13/M09 A3027 RMK A01 T01311086  RH  021%=      5-min Rain = 0
KLE1 120013Z 01010KT 13/M09 A3027 RMK A01 T01311086  RH  021%=      5-min Rain = 0
KLE1 120014Z 01009KT 13/M09 A3027 RMK A01 T01301086  RH  021%=      5-min Rain = 0
KLE1 120015Z 02010KT 13/M09 A3027 RMK A01 T01301085  RH  022%=      5-min Rain = 0
KLE1 120016Z 02008KT 13/M09 A3027 RMK A01 T01291085  RH  022%=      5-min Rain = 0
KLE1 120017Z 01008KT 13/M09 A3027 RMK A01 T01281085  RH  022%=      5-min Rain = 0
KLE1 120018Z 01009KT 13/M09 A3027 RMK A01 T01271085  RH  022%=      5-min Rain = 0
KLE1 120019Z 02010KT 13/M09 A3027 RMK A01 T01261085  RH  022%=      5-min Rain = 0
KLE1 120020Z 01011KT 13/M09 A3027 RMK A01 T01261085  RH  022%=      5-min Rain = 0
KLE1 120021Z 01010KT 13/M09 A3028 RMK A01 T01261085  RH  022%=      5-min Rain = 0
KLE1 120022Z 00009KT 13/M09 A3028 RMK A01 T01251085  RH  022%=      5-min Rain = 0
KLE1 120023Z 00008KT 13/M09 A3028 RMK A01 T01251086  RH  022%=      5-min Rain = 0
KLE1 120024Z 00009KT 12/M09 A3028 RMK A01 T01241086  RH  022%=      5-min Rain = 0
KLE1 120025Z 35008KT 12/M09 A3028 RMK A01 T01241086  RH  022%=      5-min Rain = 0
KLE1 120026Z 35007KT 12/M09 A3028 RMK A01 T01241085  RH  022%=      5-min Rain = 0
KLE1 120027Z 35007KT 12/M09 A3028 RMK A01 T01241086  RH  022%=      5-min Rain = 0
KLE1 120028Z 36007KT 12/M09 A3028 RMK A01 T01221086  RH  022%=      5-min Rain = 0
KLE1 120029Z 00009KT 12/M09 A3028 RMK A01 T01211086  RH  023%=      5-min Rain = 0
KLE1 120030Z 00008KT 12/M09 A3028 RMK A01 T01201086  RH  023%=      5-min Rain = 0
KLE1 120031Z 01008KT 12/M09 A3028 RMK A01 T01201086  RH  023%=      5-min Rain = 0
KLE1 120032Z 01009KT 12/M09 A3028 RMK A01 T01201085  RH  023%=      5-min Rain = 0
KLE1 120033Z 02008KT 12/M09 A3028 RMK A01 T01201085  RH  023%=      5-min Rain = 0
KLE1 120034Z 02007KT 12/M08 A3028 RMK A01 T01201084  RH  023%=      5-min Rain = 0
KLE1 120035Z 02008KT 12/M08 A3028 RMK A01 T01191084  RH  023%=      5-min Rain = 0
KLE1 120036Z 02007KT 12/M08 A3028 RMK A01 T01191084  RH  023%=      5-min Rain = 0
KLE1 120037Z 02008KT 12/M08 A3028 RMK A01 T01181083  RH  024%=      5-min Rain = 0
KLE1 120038Z 02008KT 12/M08 A3028 RMK A01 T01181083  RH  024%=      5-min Rain = 0
KLE1 120039Z 02009KT 12/M08 A3028 RMK A01 T01181082  RH  024%=      5-min Rain = 0
KLE1 120040Z 02008KT 12/M08 A3028 RMK A01 T01181081  RH  024%=      5-min Rain = 0
KLE1 120041Z 03007KT 12/M08 A3028 RMK A01 T01171081  RH  024%=      5-min Rain = 0
KLE1 120042Z 03007KT 12/M08 A3028 RMK A01 T01171081  RH  024%=      5-min Rain = 0
KLE1 120043Z 03007KT 12/M08 A3028 RMK A01 T01151082  RH  024%=      5-min Rain = 0
KLE1 120044Z 03007KT 12/M08 A3028 RMK A01 T01151082  RH  024%=      5-min Rain = 0
KLE1 120045Z 03007KT 11/M08 A3028 RMK A01 T01141083  RH  024%=      5-min Rain = 0
KLE1 120046Z 02007KT 11/M08 A3028 RMK A01 T01131082  RH  025%=      5-min Rain = 0
KLE1 120047Z 02008KT 11/M08 A3028 RMK A01 T01121082  RH  025%=      5-min Rain = 0
KLE1 120048Z 02008KT 11/M08 A3028 RMK A01 T01121079  RH  025%=      5-min Rain = 0
KLE1 120049Z 02009KT 11/M08 A3029 RMK A01 T01131079  RH  025%=      5-min Rain = 0
KLE1 120050Z 02010KT 11/M08 A3029 RMK A01 T01121077  RH  026%=      5-min Rain = 0
KLE1 120051Z 03010KT 11/M08 A3029 RMK A01 T01131075  RH  026%=      5-min Rain = 0
KLE1 120052Z 02009KT 11/M07 A3029 RMK A01 T01141073  RH  026%=      5-min Rain = 0
KLE1 120053Z 03010KT 11/M07 A3029 RMK A01 T01141074  RH  026%=      5-min Rain = 0
KLE1 120054Z 03009KT 11/M07 A3029 RMK A01 T01141072  RH  026%=      5-min Rain = 0
KLE1 120055Z 03009KT 11/M07 A3029 RMK A01 T01131072  RH  027%=      5-min Rain = 0
KLE1 120056Z 03008KT 11/M07 A3029 RMK A01 T01131071  RH  027%=      5-min Rain = 0
KLE1 120057Z 03009KT 11/M07 A3029 RMK A01 T01121071  RH  027%=      5-min Rain = 0
KLE1 120058Z 03009KT 11/M07 A3029 RMK A01 T01121071  RH  027%=      5-min Rain = 0
KLE1 120059Z 03008KT 11/M07 A3029 RMK A01 T01111071  RH  027%=      5-min Rain = 0
KLE1 120100Z 02008KT 11/M07 A3029 RMK A01 T01111071  RH  027%=      5-min Rain = 0
KLE1 120101Z 02008KT 11/M07 A3029 RMK A01 T01101072  RH  027%=      5-min Rain = 0
KLE1 120102Z 02008KT 11/M07 A3029 RMK A01 T01091071  RH  028%=      5-min Rain = 0
KLE1 120103Z 02008KT 11/M07 A3029 RMK A01 T01091071  RH  028%=      5-min Rain = 0
KLE1 120104Z 02008KT 11/M07 A3029 RMK A01 T01081071  RH  028%=      5-min Rain = 0
KLE1 120105Z 02008KT 11/M07 A3029 RMK A01 T01081071  RH  028%=      5-min Rain = 0
KLE1 120106Z 02009KT 11/M07 A3029 RMK A01 T01071071  RH  028%=      5-min Rain = 0
KLE1 120107Z 03009KT 11/M07 A3029 RMK A01 T01081070  RH  028%=      5-min Rain = 0
KLE1 120108Z 03010KT 11/M07 A3029 RMK A01 T01081070  RH  028%=      5-min Rain = 0
KLE1 120109Z 03009KT 11/M07 A3029 RMK A01 T01091070  RH  028%=      5-min Rain = 0
KLE1 120110Z 02009KT 11/M07 A3029 RMK A01 T01091070  RH  028%=      5-min Rain = 0
KLE1 120111Z 03008KT 11/M07 A3029 RMK A01 T01081070  RH  028%=      5-min Rain = 0
KLE1 120112Z 03008KT 11/M07 A3029 RMK A01 T01081070  RH  028%=      5-min Rain = 0
KLE1 120113Z 03008KT 11/M07 A3029 RMK A01 T01071071  RH  028%=      5-min Rain = 0
KLE1 120114Z 02008KT 11/M07 A3029 RMK A01 T01071070  RH  028%=      5-min Rain = 0
KLE1 120115Z 02008KT 11/M07 A3029 RMK A01 T01061071  RH  028%=      5-min Rain = 0
KLE1 120116Z 02007KT 11/M07 A3029 RMK A01 T01051070  RH  028%=      5-min Rain = 0
KLE1 120117Z 02007KT 10/M07 A3029 RMK A01 T01041071  RH  029%=      5-min Rain = 0
KLE1 120118Z 02007KT 10/M07 A303 RMK A01 T01031071  RH  029%=      5-min Rain = 0
KLE1 120119Z 02007KT 10/M07 A303 RMK A01 T01021072  RH  029%=      5-min Rain = 0
KLE1 120120Z 02007KT 10/M07 A303 RMK A01 T01011072  RH  029%=      5-min Rain = 0
KLE1 120121Z 02007KT 10/M07 A303 RMK A01 T01001072  RH  029%=      5-min Rain = 0
KLE1 120122Z 02007KT 10/M07 A303 RMK A01 T01001072  RH  029%=      5-min Rain = 0
KLE1 120123Z 02007KT 10/M07 A303 RMK A01 T00991072  RH  029%=      5-min Rain = 0
KLE1 120124Z 02007KT 10/M07 A303 RMK A01 T00991072  RH  029%=      5-min Rain = 0
KLE1 120125Z 03007KT 10/M07 A303 RMK A01 T00981072  RH  030%=      5-min Rain = 0
KLE1 120126Z 02007KT 10/M07 A303 RMK A01 T00971072  RH  030%=      5-min Rain = 0
KLE1 120127Z 02007KT 10/M07 A303 RMK A01 T00961072  RH  030%=      5-min Rain = 0
KLE1 120128Z 02008KT 10/M07 A303 RMK A01 T00951073  RH  030%=      5-min Rain = 0
KLE1 120129Z 02008KT 10/M07 A303 RMK A01 T00951073  RH  030%=      5-min Rain = 0
KLE1 120130Z 02008KT 09/M07 A303 RMK A01 T00941073  RH  030%=      5-min Rain = 0
KLE1 120131Z 02007KT 09/M07 A303 RMK A01 T00931073  RH  030%=      5-min Rain = 0
KLE1 120132Z 02007KT 09/M07 A303 RMK A01 T00931073  RH  030%=      5-min Rain = 0
KLE1 120133Z 02008KT 09/M07 A303 RMK A01 T00921074  RH  030%=      5-min Rain = 0
KLE1 120134Z 02008KT 09/M07 A303 RMK A01 T00921074  RH  030%=      5-min Rain = 0
KLE1 120135Z 02008KT 09/M07 A303 RMK A01 T00911074  RH  030%=      5-min Rain = 0
KLE1 120136Z 02008KT 09/M07 A303 RMK A01 T00901074  RH  031%=      5-min Rain = 0
KLE1 120137Z 02008KT 09/M07 A303 RMK A01 T00901073  RH  031%=      5-min Rain = 0
KLE1 120138Z 02008KT 09/M07 A303 RMK A01 T00891074  RH  031%=      5-min Rain = 0
KLE1 120139Z 02008KT 09/M07 A3031 RMK A01 T00891073  RH  031%=      5-min Rain = 0
KLE1 120140Z 02007KT 09/M07 A3031 RMK A01 T00891073  RH  031%=      5-min Rain = 0
KLE1 120141Z 02008KT 09/M07 A3031 RMK A01 T00881073  RH  031%=      5-min Rain = 0
KLE1 120142Z 02008KT 09/M07 A3031 RMK A01 T00881073  RH  031%=      5-min Rain = 0
KLE1 120143Z 02008KT 09/M07 A3031 RMK A01 T00881072  RH  031%=      5-min Rain = 0
KLE1 120144Z 02008KT 09/M07 A3031 RMK A01 T00881072  RH  031%=      5-min Rain = 0
KLE1 120145Z 02009KT 09/M07 A3031 RMK A01 T00881072  RH  032%=      5-min Rain = 0
KLE1 120146Z 02008KT 09/M07 A3031 RMK A01 T00881071  RH  032%=      5-min Rain = 0
KLE1 120147Z 03008KT 09/M07 A3031 RMK A01 T00881071  RH  032%=      5-min Rain = 0
KLE1 120148Z 03008KT 09/M07 A3031 RMK A01 T00881071  RH  032%=      5-min Rain = 0
KLE1 120149Z 03008KT 09/M07 A3031 RMK A01 T00881071  RH  032%=      5-min Rain = 0
KLE1 120150Z 03009KT 09/M07 A3031 RMK A01 T00881070  RH  032%=      5-min Rain = 0
KLE1 120151Z 03008KT 09/M07 A3031 RMK A01 T00881070  RH  032%=      5-min Rain = 0
KLE1 120152Z 03008KT 09/M07 A3031 RMK A01 T00881071  RH  032%=      5-min Rain = 0
KLE1 120153Z 03009KT 09/M07 A3031 RMK A01 T00881070  RH  032%=      5-min Rain = 0
KLE1 120154Z 02009KT 09/M07 A3031 RMK A01 T00871070  RH  032%=      5-min Rain = 0
KLE1 120155Z 02009KT 09/M07 A3031 RMK A01 T00871069  RH  032%=      5-min Rain = 0
KLE1 120156Z 03008KT 09/M07 A3031 RMK A01 T00871069  RH  033%=      5-min Rain = 0
KLE1 120157Z 03009KT 09/M07 A3031 RMK A01 T00881068  RH  033%=      5-min Rain = 0
KLE1 120158Z 02008KT 09/M07 A3031 RMK A01 T00871068  RH  033%=      5-min Rain = 0
KLE1 120159Z 02009KT 09/M07 A3031 RMK A01 T00871068  RH  033%=      5-min Rain = 0
KLE1 120200Z 03009KT 09/M07 A3031 RMK A01 T00871067  RH  033%=      5-min Rain = 0
KLE1 120201Z 03008KT 09/M07 A3031 RMK A01 T00861067  RH  033%=      5-min Rain = 0
KLE1 120202Z 03008KT 09/M07 A3032 RMK A01 T00851068  RH  033%=      5-min Rain = 0
KLE1 120203Z 03008KT 09/M07 A3032 RMK A01 T00851067  RH  033%=      5-min Rain = 0
KLE1 120204Z 03008KT 08/M07 A3032 RMK A01 T00841068  RH  034%=      5-min Rain = 0
KLE1 120205Z 03008KT 08/M07 A3032 RMK A01 T00831068  RH  034%=      5-min Rain = 0
KLE1 120206Z 03007KT 08/M07 A3032 RMK A01 T00821068  RH  034%=      5-min Rain = 0
KLE1 120207Z 02008KT 08/M07 A3032 RMK A01 T00811069  RH  034%=      5-min Rain = 0
KLE1 120208Z 02007KT 08/M07 A3032 RMK A01 T00801069  RH  034%=      5-min Rain = 0
KLE1 120209Z 02007KT 08/M07 A3032 RMK A01 T00791069  RH  034%=      5-min Rain = 0
KLE1 120210Z 02007KT 08/M07 A3032 RMK A01 T00781069  RH  034%=      5-min Rain = 0
KLE1 120211Z 02008KT 08/M07 A3032 RMK A01 T00781069  RH  035%=      5-min Rain = 0
KLE1 120212Z 02008KT 08/M07 A3032 RMK A01 T00771069  RH  035%=      5-min Rain = 0
KLE1 120213Z 02008KT 08/M07 A3032 RMK A01 T00771069  RH  035%=      5-min Rain = 0
KLE1 120214Z 02008KT 08/M07 A3032 RMK A01 T00761070  RH  035%=      5-min Rain = 0
KLE1 120215Z 02008KT 08/M07 A3032 RMK A01 T00751070  RH  035%=      5-min Rain = 0
KLE1 120216Z 02008KT 07/M07 A3032 RMK A01 T00741070  RH  035%=      5-min Rain = 0
KLE1 120217Z 02008KT 07/M07 A3032 RMK A01 T00731069  RH  036%=      5-min Rain = 0
KLE1 120218Z 03008KT 07/M07 A3032 RMK A01 T00731069  RH  036%=      5-min Rain = 0
KLE1 120219Z 03008KT 07/M07 A3032 RMK A01 T00731069  RH  036%=      5-min Rain = 0
KLE1 120220Z 03007KT 07/M07 A3032 RMK A01 T00731069  RH  036%=      5-min Rain = 0
KLE1 120221Z 03008KT 07/M07 A3032 RMK A01 T00731069  RH  036%=      5-min Rain = 0
KLE1 120222Z 03008KT 07/M07 A3032 RMK A01 T00721069  RH  036%=      5-min Rain = 0
KLE1 120223Z 03008KT 07/M07 A3032 RMK A01 T00721068  RH  036%=      5-min Rain = 0
KLE1 120224Z 03008KT 07/M07 A3032 RMK A01 T00721067  RH  036%=      5-min Rain = 0
KLE1 120225Z 03008KT 07/M07 A3032 RMK A01 T00721066  RH  037%=      5-min Rain = 0
KLE1 120226Z 03008KT 07/M07 A3032 RMK A01 T00721066  RH  037%=      5-min Rain = 0
KLE1 120227Z 03009KT 07/M07 A3032 RMK A01 T00731066  RH  037%=      5-min Rain = 0
KLE1 120228Z 03008KT 07/M07 A3032 RMK A01 T00731066  RH  037%=      5-min Rain = 0
KLE1 120229Z 03008KT 07/M07 A3032 RMK A01 T00731065  RH  037%=      5-min Rain = 0
KLE1 120230Z 03008KT 07/M07 A3032 RMK A01 T00721065  RH  037%=      5-min Rain = 0
KLE1 120231Z 02008KT 07/M07 A3032 RMK A01 T00731065  RH  037%=      5-min Rain = 0
KLE1 120232Z 03008KT 07/M06 A3032 RMK A01 T00731064  RH  037%=      5-min Rain = 0
KLE1 120233Z 02008KT 07/M06 A3032 RMK A01 T00721064  RH  037%=      5-min Rain = 0
KLE1 120234Z 03008KT 07/M06 A3032 RMK A01 T00721064  RH  037%=      5-min Rain = 0
KLE1 120235Z 03009KT 07/M06 A3033 RMK A01 T00721064  RH  037%=      5-min Rain = 0
KLE1 120236Z 02008KT 07/M06 A3033 RMK A01 T00721064  RH  037%=      5-min Rain = 0
KLE1 120237Z 02008KT 07/M07 A3033 RMK A01 T00711065  RH  037%=      5-min Rain = 0
KLE1 120238Z 02008KT 07/M07 A3033 RMK A01 T00701065  RH  037%=      5-min Rain = 0
KLE1 120239Z 02008KT 07/M07 A3033 RMK A01 T00701065  RH  038%=      5-min Rain = 0
KLE1 120240Z 02008KT 07/M07 A3033 RMK A01 T00691065  RH  038%=      5-min Rain = 0
KLE1 120241Z 02008KT 07/M07 A3033 RMK A01 T00691065  RH  038%=      5-min Rain = 0
KLE1 120242Z 02009KT 07/M07 A3033 RMK A01 T00681065  RH  038%=      5-min Rain = 0
KLE1 120243Z 02009KT 07/M06 A3033 RMK A01 T00691064  RH  038%=      5-min Rain = 0
KLE1 120244Z 02009KT 07/M06 A3033 RMK A01 T00691063  RH  038%=      5-min Rain = 0
KLE1 120245Z 02009KT 07/M06 A3033 RMK A01 T00701063  RH  038%=      5-min Rain = 0
KLE1 120246Z 02009KT 07/M06 A3033 RMK A01 T00711062  RH  038%=      5-min Rain = 0
KLE1 120247Z 02009KT 07/M06 A3033 RMK A01 T00711062  RH  038%=      5-min Rain = 0
KLE1 120248Z 02009KT 07/M06 A3033 RMK A01 T00711062  RH  038%=      5-min Rain = 0
KLE1 120249Z 02009KT 07/M06 A3033 RMK A01 T00711062  RH  038%=      5-min Rain = 0
KLE1 120250Z 02009KT 07/M06 A3033 RMK A01 T00711062  RH  038%=      5-min Rain = 0
KLE1 120251Z 03009KT 07/M06 A3033 RMK A01 T00701063  RH  038%=      5-min Rain = 0
KLE1 120252Z 03008KT 07/M06 A3033 RMK A01 T00701063  RH  038%=      5-min Rain = 0
KLE1 120253Z 03008KT 07/M06 A3033 RMK A01 T00691063  RH  038%=      5-min Rain = 0
KLE1 120254Z 03008KT 07/M06 A3033 RMK A01 T00691063  RH  039%=      5-min Rain = 0
KLE1 120255Z 03008KT 07/M06 A3033 RMK A01 T00681063  RH  039%=      5-min Rain = 0
KLE1 120256Z 03008KT 07/M06 A3033 RMK A01 T00671064  RH  039%=      5-min Rain = 0
KLE1 120257Z 03008KT 07/M06 A3033 RMK A01 T00671063  RH  039%=      5-min Rain = 0
KLE1 120258Z 03008KT 07/M06 A3034 RMK A01 T00661064  RH  039%=      5-min Rain = 0
KLE1 120259Z 03008KT 07/M06 A3034 RMK A01 T00661064  RH  039%=      5-min Rain = 0
KLE1 120300Z 03008KT 07/M06 A3034 RMK A01 T00651064  RH  039%=      5-min Rain = 0
KLE1 120301Z 03008KT 06/M06 A3034 RMK A01 T00641064  RH  039%=      5-min Rain = 0
KLE1 120302Z 03008KT 06/M06 A3034 RMK A01 T00641064  RH  040%=      5-min Rain = 0
KLE1 120303Z 03007KT 06/M06 A3034 RMK A01 T00641063  RH  040%=      5-min Rain = 0
KLE1 120304Z 03007KT 06/M06 A3034 RMK A01 T00641063  RH  040%=      5-min Rain = 0
KLE1 120305Z 03007KT 06/M06 A3034 RMK A01 T00641063  RH  040%=      5-min Rain = 0
KLE1 120306Z 03007KT 06/M06 A3034 RMK A01 T00641063  RH  040%=      5-min Rain = 0
KLE1 120307Z 03008KT 06/M06 A3034 RMK A01 T00631063  RH  040%=      5-min Rain = 0
KLE1 120308Z 02008KT 06/M06 A3034 RMK A01 T00631063  RH  040%=      5-min Rain = 0
KLE1 120309Z 02008KT 06/M06 A3034 RMK A01 T00631063  RH  040%=      5-min Rain = 0
KLE1 120310Z 02008KT 06/M06 A3034 RMK A01 T00631063  RH  040%=      5-min Rain = 0
KLE1 120311Z 02008KT 06/M06 A3034 RMK A01 T00641062  RH  040%=      5-min Rain = 0
KLE1 120312Z 02008KT 06/M06 A3034 RMK A01 T00641062  RH  040%=      5-min Rain = 0
KLE1 120313Z 02008KT 07/M06 A3034 RMK A01 T00651062  RH  040%=      5-min Rain = 0
KLE1 120314Z 02008KT 07/M06 A3034 RMK A01 T00651062  RH  040%=      5-min Rain = 0
KLE1 120315Z 02008KT 07/M06 A3035 RMK A01 T00651061  RH  040%=      5-min Rain = 0
KLE1 120316Z 02008KT 07/M06 A3035 RMK A01 T00651061  RH  040%=      5-min Rain = 0
KLE1 120317Z 02008KT 07/M06 A3035 RMK A01 T00651062  RH  040%=      5-min Rain = 0
KLE1 120318Z 02008KT 06/M06 A3035 RMK A01 T00641062  RH  040%=      5-min Rain = 0
KLE1 120319Z 02008KT 06/M06 A3035 RMK A01 T00641061  RH  040%=      5-min Rain = 0
KLE1 120320Z 02008KT 06/M06 A3035 RMK A01 T00641061  RH  040%=      5-min Rain = 0
KLE1 120321Z 02008KT 06/M06 A3035 RMK A01 T00641060  RH  041%=      5-min Rain = 0
KLE1 120322Z 02008KT 06/M06 A3035 RMK A01 T00641061  RH  041%=      5-min Rain = 0
KLE1 120323Z 02008KT 06/M06 A3035 RMK A01 T00641061  RH  040%=      5-min Rain = 0
KLE1 120324Z 02008KT 06/M06 A3035 RMK A01 T00641060  RH  040%=      5-min Rain = 0
KLE1 120325Z 02008KT 06/M06 A3035 RMK A01 T00641060  RH  041%=      5-min Rain = 0
KLE1 120326Z 02008KT 06/M06 A3035 RMK A01 T00641060  RH  041%=      5-min Rain = 0
KLE1 120327Z 01008KT 06/M06 A3035 RMK A01 T00641060  RH  041%=      5-min Rain = 0
KLE1 120328Z 01009KT 06/M06 A3035 RMK A01 T00641061  RH  041%=      5-min Rain = 0
KLE1 120329Z 01009KT 06/M06 A3035 RMK A01 T00631061  RH  041%=      5-min Rain = 0
KLE1 120330Z 01009KT 06/M06 A3035 RMK A01 T00621062  RH  041%=      5-min Rain = 0
KLE1 120331Z 01009KT 06/M06 A3035 RMK A01 T00601062  RH  041%=      5-min Rain = 0
KLE1 120332Z 02009KT 06/M06 A3035 RMK A01 T00581063  RH  041%=      5-min Rain = 0
KLE1 120333Z 02009KT 06/M06 A3035 RMK A01 T00571062  RH  042%=      5-min Rain = 0
KLE1 120334Z 02009KT 06/M06 A3035 RMK A01 T00571061  RH  042%=      5-min Rain = 0
KLE1 120335Z 02009KT 06/M06 A3035 RMK A01 T00571061  RH  042%=      5-min Rain = 0
KLE1 120336Z 02009KT 06/M06 A3035 RMK A01 T00581061  RH  042%=      5-min Rain = 0
KLE1 120337Z 02009KT 06/M06 A3035 RMK A01 T00581061  RH  042%=      5-min Rain = 0
KLE1 120338Z 02009KT 06/M06 A3035 RMK A01 T00581061  RH  042%=      5-min Rain = 0
KLE1 120339Z 01009KT 06/M06 A3035 RMK A01 T00581061  RH  042%=      5-min Rain = 0
KLE1 120340Z 01009KT 06/M06 A3035 RMK A01 T00571061  RH  042%=      5-min Rain = 0
KLE1 120341Z 01009KT 06/M06 A3035 RMK A01 T00571061  RH  042%=      5-min Rain = 0
KLE1 120342Z 01009KT 06/M06 A3035 RMK A01 T00561061  RH  042%=      5-min Rain = 0
KLE1 120343Z 01009KT 06/M06 A3035 RMK A01 T00561061  RH  043%=      5-min Rain = 0
KLE1 120344Z 01009KT 06/M06 A3035 RMK A01 T00551061  RH  043%=      5-min Rain = 0
KLE1 120345Z 02010KT 06/M06 A3035 RMK A01 T00551061  RH  043%=      5-min Rain = 0
KLE1 120346Z 02010KT 06/M06 A3036 RMK A01 T00561060  RH  043%=      5-min Rain = 0
KLE1 120347Z 02010KT 06/M06 A3036 RMK A01 T00571060  RH  043%=      5-min Rain = 0
KLE1 120348Z 02010KT 06/M06 A3036 RMK A01 T00581059  RH  043%=      5-min Rain = 0
KLE1 120349Z 02010KT 06/M06 A3036 RMK A01 T00591059  RH  043%=      5-min Rain = 0
KLE1 120350Z 02010KT 06/M06 A3036 RMK A01 T00581059  RH  042%=      5-min Rain = 0
KLE1 120351Z 02010KT 06/M06 A3036 RMK A01 T00581059  RH  043%=      5-min Rain = 0
KLE1 120352Z 02010KT 06/M06 A3036 RMK A01 T00581059  RH  043%=      5-min Rain = 0
KLE1 120353Z 02010KT 06/M06 A3035 RMK A01 T00581059  RH  043%=      5-min Rain = 0
KLE1 120354Z 02009KT 06/M06 A3035 RMK A01 T00591058  RH  043%=      5-min Rain = 0
KLE1 120355Z 02010KT 06/M06 A3035 RMK A01 T00591058  RH  043%=      5-min Rain = 0
KLE1 120356Z 02010KT 06/M06 A3035 RMK A01 T00591058  RH  043%=      5-min Rain = 0
KLE1 120357Z 02010KT 06/M06 A3035 RMK A01 T00591058  RH  043%=      5-min Rain = 0
KLE1 120358Z 02010KT 06/M06 A3035 RMK A01 T00591058  RH  043%=      5-min Rain = 0
KLE1 120359Z 02010KT 06/M06 A3035 RMK A01 T00581059  RH  043%=      5-min Rain = 0
KLE1 120400Z 02010KT 06/M06 A3035 RMK A01 T00591058  RH  043%=      5-min Rain = 0
KLE1 120401Z 02010KT 06/M06 A3035 RMK A01 T00581059  RH  043%=      5-min Rain = 0
KLE1 120402Z 02010KT 06/M06 A3035 RMK A01 T00591058  RH  043%=      5-min Rain = 0
KLE1 120403Z 02010KT 06/M06 A3035 RMK A01 T00591058  RH  043%=      5-min Rain = 0
KLE1 120404Z 02010KT 06/M06 A3035 RMK A01 T00581059  RH  043%=      5-min Rain = 0
KLE1 120405Z 02010KT 06/M06 A3035 RMK A01 T00581059  RH  043%=      5-min Rain = 0
KLE1 120406Z 02010KT 06/M06 A3035 RMK A01 T00571059  RH  043%=      5-min Rain = 0
KLE1 120407Z 02009KT 06/M06 A3035 RMK A01 T00561060  RH  043%=      5-min Rain = 0
KLE1 120408Z 02009KT 06/M06 A3035 RMK A01 T00561060  RH  043%=      5-min Rain = 0
KLE1 120409Z 02009KT 06/M06 A3035 RMK A01 T00551060  RH  043%=      5-min Rain = 0
KLE1 120410Z 02009KT 06/M06 A3035 RMK A01 T00551060  RH  043%=      5-min Rain = 0
KLE1 120411Z 02009KT 05/M06 A3035 RMK A01 T00541060  RH  044%=      5-min Rain = 0
KLE1 120412Z 02009KT 05/M06 A3035 RMK A01 T00541060  RH  044%=      5-min Rain = 0
KLE1 120413Z 02009KT 05/M06 A3035 RMK A01 T00531060  RH  044%=      5-min Rain = 0
KLE1 120414Z 02008KT 05/M06 A3035 RMK A01 T00531060  RH  044%=      5-min Rain = 0
KLE1 120415Z 02008KT 05/M06 A3035 RMK A01 T00531061  RH  044%=      5-min Rain = 0
KLE1 120416Z 02008KT 05/M06 A3035 RMK A01 T00521061  RH  044%=      5-min Rain = 0
KLE1 120417Z 02008KT 05/M06 A3035 RMK A01 T00511061  RH  044%=      5-min Rain = 0
KLE1 120418Z 02008KT 05/M06 A3035 RMK A01 T00511062  RH  044%=      5-min Rain = 0
KLE1 120419Z 02008KT 05/M06 A3035 RMK A01 T00501062  RH  044%=      5-min Rain = 0
KLE1 120420Z 02008KT 05/M06 A3035 RMK A01 T00491062  RH  044%=      5-min Rain = 0
KLE1 120421Z 02008KT 05/M06 A3035 RMK A01 T00481062  RH  045%=      5-min Rain = 0
KLE1 120422Z 02008KT 05/M06 A3035 RMK A01 T00481062  RH  045%=      5-min Rain = 0
KLE1 120423Z 03008KT 05/M06 A3035 RMK A01 T00471062  RH  045%=      5-min Rain = 0
KLE1 120424Z 02008KT 05/M06 A3035 RMK A01 T00471062  RH  045%=      5-min Rain = 0
KLE1 120425Z 02008KT 05/M06 A3036 RMK A01 T00471063  RH  045%=      5-min Rain = 0
KLE1 120426Z 03009KT 05/M06 A3036 RMK A01 T00471063  RH  045%=      5-min Rain = 0
KLE1 120427Z 02009KT 05/M06 A3036 RMK A01 T00471063  RH  045%=      5-min Rain = 0
KLE1 120428Z 03009KT 05/M06 A3036 RMK A01 T00471062  RH  045%=      5-min Rain = 0
KLE1 120429Z 03009KT 05/M06 A3036 RMK A01 T00481062  RH  045%=      5-min Rain = 0
KLE1 120430Z 03009KT 05/M06 A3036 RMK A01 T00481062  RH  045%=      5-min Rain = 0
KLE1 120431Z 03009KT 05/M06 A3036 RMK A01 T00481062  RH  045%=      5-min Rain = 0
KLE1 120432Z 03009KT 05/M06 A3036 RMK A01 T00481061  RH  045%=      5-min Rain = 0
KLE1 120433Z 03009KT 05/M06 A3036 RMK A01 T00491061  RH  045%=      5-min Rain = 0
KLE1 120434Z 03009KT 05/M06 A3036 RMK A01 T00491060  RH  045%=      5-min Rain = 0
KLE1 120435Z 03009KT 05/M06 A3036 RMK A01 T00491060  RH  045%=      5-min Rain = 0
KLE1 120436Z 03009KT 05/M06 A3036 RMK A01 T00491060  RH  045%=      5-min Rain = 0
KLE1 120437Z 03009KT 05/M06 A3036 RMK A01 T00491060  RH  045%=      5-min Rain = 0
KLE1 120438Z 03009KT 05/M06 A3036 RMK A01 T00491060  RH  045%=      5-min Rain = 0
KLE1 120439Z 03009KT 05/M06 A3036 RMK A01 T00491060  RH  045%=      5-min Rain = 0
KLE1 120440Z 03009KT 05/M06 A3036 RMK A01 T00491060  RH  045%=      5-min Rain = 0
KLE1 120441Z 03009KT 05/M06 A3035 RMK A01 T00491059  RH  045%=      5-min Rain = 0
KLE1 120442Z 03009KT 05/M06 A3035 RMK A01 T00491060  RH  045%=      5-min Rain = 0
KLE1 120443Z 03009KT 05/M06 A3035 RMK A01 T00481060  RH  045%=      5-min Rain = 0
KLE1 120444Z 03009KT 05/M06 A3035 RMK A01 T00481060  RH  046%=      5-min Rain = 0
KLE1 120445Z 03009KT 05/M06 A3035 RMK A01 T00481059  RH  046%=      5-min Rain = 0
KLE1 120446Z 02008KT 05/M06 A3035 RMK A01 T00481060  RH  046%=      5-min Rain = 0
KLE1 120447Z 03008KT 05/M06 A3035 RMK A01 T00471060  RH  046%=      5-min Rain = 0
KLE1 120448Z 02008KT 05/M06 A3036 RMK A01 T00471060  RH  046%=      5-min Rain = 0
KLE1 120449Z 02008KT 05/M06 A3036 RMK A01 T00471060  RH  046%=      5-min Rain = 0
KLE1 120450Z 02008KT 05/M06 A3036 RMK A01 T00461061  RH  046%=      5-min Rain = 0
KLE1 120451Z 02008KT 05/M06 A3036 RMK A01 T00451061  RH  046%=      5-min Rain = 0
KLE1 120452Z 02008KT 05/M06 A3036 RMK A01 T00451062  RH  046%=      5-min Rain = 0
KLE1 120453Z 02008KT 04/M06 A3036 RMK A01 T00441062  RH  046%=      5-min Rain = 0
KLE1 120454Z 02007KT 04/M06 A3036 RMK A01 T00431062  RH  046%=      5-min Rain = 0
KLE1 120455Z 02007KT 04/M06 A3036 RMK A01 T00421062  RH  047%=      5-min Rain = 0
KLE1 120456Z 02008KT 04/M06 A3036 RMK A01 T00411062  RH  047%=      5-min Rain = 0
KLE1 120457Z 02008KT 04/M06 A3036 RMK A01 T00411061  RH  047%=      5-min Rain = 0
KLE1 120458Z 02007KT 04/M06 A3036 RMK A01 T00411061  RH  048%=      5-min Rain = 0
KLE1 120459Z 02007KT 04/M06 A3036 RMK A01 T00411060  RH  048%=      5-min Rain = 0

Page generated in 0.1247 seconds.